Observation data for McCamey on 12/13/2019      Previous  Date       Current Mesonet Observations  Soil Data  Daily Summary Page  Observations in Plain Language
KMC4 130600Z 03000KT 07/05 A3006 RMK A01 T00710054  RH  089%=      5-min Rain = 0
KMC4 130601Z 04000KT 07/05 A3006 RMK A01 T00700054  RH  090%=      5-min Rain = 0
KMC4 130602Z 08000KT 07/06 A3006 RMK A01 T00710055  RH  090%=      5-min Rain = 0
KMC4 130603Z 08000KT 07/05 A3006 RMK A01 T00710054  RH  089%=      5-min Rain = 0
KMC4 130604Z 00000KT 07/05 A3006 RMK A01 T00710054  RH  089%=      5-min Rain = 0
KMC4 130605Z 10000KT 07/05 A3005 RMK A01 T00700053  RH  089%=      5-min Rain = 0
KMC4 130606Z 08001KT 07/05 A3005 RMK A01 T00700053  RH  089%=      5-min Rain = 0
KMC4 130607Z 08001KT 07/05 A3006 RMK A01 T00690053  RH  089%=      5-min Rain = 0
KMC4 130608Z 07001KT 07/05 A3006 RMK A01 T00690053  RH  090%=      5-min Rain = 0
KMC4 130609Z 05001KT 07/05 A3006 RMK A01 T00690053  RH  089%=      5-min Rain = 0
KMC4 130610Z 07001KT 07/05 A3006 RMK A01 T00680053  RH  090%=      5-min Rain = 0
KMC4 130611Z 09001KT 07/05 A3006 RMK A01 T00680053  RH  090%=      5-min Rain = 0
KMC4 130612Z 09002KT 07/05 A3006 RMK A01 T00690053  RH  090%=      5-min Rain = 0
KMC4 130613Z 06001KT 07/05 A3006 RMK A01 T00680053  RH  090%=      5-min Rain = 0
KMC4 130614Z 06002KT 07/05 A3006 RMK A01 T00680053  RH  090%=      5-min Rain = 0
KMC4 130615Z 09002KT 07/05 A3006 RMK A01 T00690054  RH  091%=      5-min Rain = 0
KMC4 130616Z 08002KT 07/05 A3006 RMK A01 T00690054  RH  090%=      5-min Rain = 0
KMC4 130617Z 07002KT 07/05 A3006 RMK A01 T00690053  RH  090%=      5-min Rain = 0
KMC4 130618Z 08002KT 07/05 A3006 RMK A01 T00680052  RH  090%=      5-min Rain = 0
KMC4 130619Z 08002KT 07/05 A3006 RMK A01 T00670052  RH  090%=      5-min Rain = 0
KMC4 130620Z 08002KT 07/05 A3006 RMK A01 T00670052  RH  090%=      5-min Rain = 0
KMC4 130621Z 08002KT 07/05 A3006 RMK A01 T00670053  RH  090%=      5-min Rain = 0
KMC4 130622Z 08002KT 07/05 A3006 RMK A01 T00670053  RH  090%=      5-min Rain = 0
KMC4 130623Z 08002KT 07/05 A3005 RMK A01 T00680053  RH  090%=      5-min Rain = 0
KMC4 130624Z 08002KT 07/05 A3005 RMK A01 T00670053  RH  090%=      5-min Rain = 0
KMC4 130625Z 08001KT 07/05 A3005 RMK A01 T00680053  RH  090%=      5-min Rain = 0
KMC4 130626Z 07001KT 07/05 A3005 RMK A01 T00680053  RH  090%=      5-min Rain = 0
KMC4 130627Z 09001KT 07/06 A3005 RMK A01 T00690055  RH  091%=      5-min Rain = 0
KMC4 130628Z 10001KT 07/06 A3006 RMK A01 T00710057  RH  091%=      5-min Rain = 0
KMC4 130629Z 08001KT 07/06 A3006 RMK A01 T00720056  RH  090%=      5-min Rain = 0
KMC4 130630Z 06000KT 07/05 A3006 RMK A01 T00710054  RH  089%=      5-min Rain = 0
KMC4 130631Z 07001KT 07/06 A3006 RMK A01 T00710055  RH  090%=      5-min Rain = 0
KMC4 130632Z 06001KT 07/06 A3006 RMK A01 T00710055  RH  090%=      5-min Rain = 0
KMC4 130633Z 05002KT 07/05 A3006 RMK A01 T00700054  RH  089%=      5-min Rain = 0
KMC4 130634Z 05002KT 07/05 A3006 RMK A01 T00700053  RH  089%=      5-min Rain = 0
KMC4 130635Z 05002KT 07/05 A3006 RMK A01 T00700054  RH  090%=      5-min Rain = 0
KMC4 130636Z 05002KT 07/05 A3006 RMK A01 T00700054  RH  090%=      5-min Rain = 0
KMC4 130637Z 06002KT 07/05 A3006 RMK A01 T00690053  RH  089%=      5-min Rain = 0
KMC4 130638Z 05002KT 07/05 A3006 RMK A01 T00680051  RH  089%=      5-min Rain = 0
KMC4 130639Z 06002KT 07/05 A3006 RMK A01 T00670051  RH  090%=      5-min Rain = 0
KMC4 130640Z 06002KT 07/05 A3006 RMK A01 T00660051  RH  090%=      5-min Rain = 0
KMC4 130641Z 07001KT 07/05 A3007 RMK A01 T00660052  RH  091%=      5-min Rain = 0
KMC4 130642Z 08001KT 07/05 A3007 RMK A01 T00670053  RH  091%=      5-min Rain = 0
KMC4 130643Z 08001KT 07/05 A3007 RMK A01 T00670053  RH  091%=      5-min Rain = 0
KMC4 130644Z 07002KT 07/05 A3007 RMK A01 T00680054  RH  090%=      5-min Rain = 0
KMC4 130645Z 06002KT 07/05 A3007 RMK A01 T00680053  RH  090%=      5-min Rain = 0
KMC4 130646Z 07002KT 07/05 A3007 RMK A01 T00680052  RH  090%=      5-min Rain = 0
KMC4 130647Z 07001KT 07/05 A3007 RMK A01 T00670051  RH  090%=      5-min Rain = 0
KMC4 130648Z 07001KT 07/05 A3007 RMK A01 T00660051  RH  090%=      5-min Rain = 0
KMC4 130649Z 07001KT 07/05 A3007 RMK A01 T00660052  RH  090%=      5-min Rain = 0
KMC4 130650Z 00000KT 07/05 A3007 RMK A01 T00660052  RH  090%=      5-min Rain = 0
KMC4 130651Z 08000KT 07/05 A3006 RMK A01 T00670053  RH  091%=      5-min Rain = 0
KMC4 130652Z 08000KT 07/05 A3006 RMK A01 T00680054  RH  091%=      5-min Rain = 0
KMC4 130653Z 10000KT 07/05 A3006 RMK A01 T00680053  RH  090%=      5-min Rain = 0
KMC4 130654Z 10000KT 07/05 A3006 RMK A01 T00670050  RH  089%=      5-min Rain = 0
KMC4 130655Z 00000KT 07/05 A3006 RMK A01 T00660050  RH  089%=      5-min Rain = 0
KMC4 130656Z 00000KT 07/05 A3006 RMK A01 T00650050  RH  090%=      5-min Rain = 0
KMC4 130657Z 00000KT 07/05 A3006 RMK A01 T00650050  RH  090%=      5-min Rain = 0
KMC4 130658Z 08000KT 06/05 A3006 RMK A01 T00640050  RH  090%=      5-min Rain = 0
KMC4 130659Z 08001KT 06/05 A3006 RMK A01 T00640049  RH  090%=      5-min Rain = 0
KMC4 130700Z 11000KT 06/05 A3006 RMK A01 T00640049  RH  090%=      5-min Rain = 0
KMC4 130701Z 13000KT 06/05 A3006 RMK A01 T00630049  RH  091%=      5-min Rain = 0
KMC4 130702Z 00000KT 06/05 A3006 RMK A01 T00630048  RH  091%=      5-min Rain = 0
KMC4 130703Z 14000KT 06/05 A3006 RMK A01 T00630049  RH  091%=      5-min Rain = 0
KMC4 130704Z 14000KT 06/05 A3006 RMK A01 T00620048  RH  091%=      5-min Rain = 0
KMC4 130705Z 00000KT 06/05 A3006 RMK A01 T00620049  RH  091%=      5-min Rain = 0
KMC4 130706Z 00000KT 06/05 A3006 RMK A01 T00620048  RH  091%=      5-min Rain = 0
KMC4 130707Z 00000KT 06/05 A3006 RMK A01 T00620048  RH  091%=      5-min Rain = 0
KMC4 130708Z 15001KT 06/05 A3006 RMK A01 T00620048  RH  091%=      5-min Rain = 0
KMC4 130709Z 14001KT 06/05 A3005 RMK A01 T00610048  RH  091%=      5-min Rain = 0
KMC4 130710Z 16001KT 06/05 A3005 RMK A01 T00610047  RH  091%=      5-min Rain = 0
KMC4 130711Z 15002KT 06/05 A3005 RMK A01 T00600047  RH  091%=      5-min Rain = 0
KMC4 130712Z 15002KT 06/05 A3005 RMK A01 T00600047  RH  091%=      5-min Rain = 0
KMC4 130713Z 15002KT 06/05 A3004 RMK A01 T00600047  RH  091%=      5-min Rain = 0
KMC4 130714Z 14002KT 06/05 A3004 RMK A01 T00600047  RH  091%=      5-min Rain = 0
KMC4 130715Z 14002KT 06/05 A3004 RMK A01 T00610048  RH  092%=      5-min Rain = 0
KMC4 130716Z 15001KT 06/05 A3004 RMK A01 T00610048  RH  092%=      5-min Rain = 0
KMC4 130717Z 14001KT 06/05 A3004 RMK A01 T00610048  RH  092%=      5-min Rain = 0
KMC4 130718Z 14001KT 06/05 A3004 RMK A01 T00600047  RH  091%=      5-min Rain = 0
KMC4 130719Z 15001KT 06/05 A3004 RMK A01 T00590045  RH  091%=      5-min Rain = 0
KMC4 130720Z 15001KT 06/04 A3004 RMK A01 T00560042  RH  091%=      5-min Rain = 0
KMC4 130721Z 15000KT 05/04 A3004 RMK A01 T00540040  RH  091%=      5-min Rain = 0
KMC4 130722Z 00000KT 05/04 A3004 RMK A01 T00530040  RH  091%=      5-min Rain = 0
KMC4 130723Z 00000KT 05/04 A3004 RMK A01 T00520039  RH  091%=      5-min Rain = 0
KMC4 130724Z 00000KT 05/04 A3004 RMK A01 T00510039  RH  092%=      5-min Rain = 0
KMC4 130725Z 14000KT 05/04 A3004 RMK A01 T00500039  RH  092%=      5-min Rain = 0
KMC4 130726Z 22000KT 05/04 A3004 RMK A01 T00500038  RH  092%=      5-min Rain = 0
KMC4 130727Z 23000KT 05/04 A3004 RMK A01 T00490038  RH  092%=      5-min Rain = 0
KMC4 130728Z 00000KT 05/04 A3004 RMK A01 T00490038  RH  093%=      5-min Rain = 0
KMC4 130729Z 14000KT 05/04 A3004 RMK A01 T00490039  RH  093%=      5-min Rain = 0
KMC4 130730Z 00000KT 05/04 A3004 RMK A01 T00490039  RH  093%=      5-min Rain = 0
KMC4 130731Z 00000KT 05/04 A3004 RMK A01 T00490039  RH  094%=      5-min Rain = 0
KMC4 130732Z 00000KT 05/04 A3004 RMK A01 T00490040  RH  094%=      5-min Rain = 0
KMC4 130733Z 00000KT 05/04 A3004 RMK A01 T00490040  RH  094%=      5-min Rain = 0
KMC4 130734Z 00000KT 05/04 A3004 RMK A01 T00490040  RH  094%=      5-min Rain = 0
KMC4 130735Z 00000KT 05/04 A3004 RMK A01 T00490041  RH  094%=      5-min Rain = 0
KMC4 130736Z 00000KT 05/04 A3004 RMK A01 T00490041  RH  095%=      5-min Rain = 0
KMC4 130737Z 00000KT 05/04 A3004 RMK A01 T00490041  RH  095%=      5-min Rain = 0
KMC4 130738Z 00000KT 05/04 A3004 RMK A01 T00500042  RH  095%=      5-min Rain = 0
KMC4 130739Z 00000KT 05/04 A3004 RMK A01 T00500043  RH  095%=      5-min Rain = 0
KMC4 130740Z 00000KT 05/04 A3004 RMK A01 T00500043  RH  095%=      5-min Rain = 0
KMC4 130741Z 00000KT 05/04 A3004 RMK A01 T00510043  RH  095%=      5-min Rain = 0
KMC4 130742Z 00000KT 05/04 A3004 RMK A01 T00510043  RH  095%=      5-min Rain = 0
KMC4 130743Z 00000KT 05/04 A3004 RMK A01 T00510043  RH  095%=      5-min Rain = 0
KMC4 130744Z 00000KT 05/04 A3004 RMK A01 T00510043  RH  095%=      5-min Rain = 0
KMC4 130745Z 12000KT 05/04 A3004 RMK A01 T00510043  RH  095%=      5-min Rain = 0
KMC4 130746Z 00000KT 05/04 A3004 RMK A01 T00510043  RH  095%=      5-min Rain = 0
KMC4 130747Z 00000KT 05/04 A3004 RMK A01 T00510043  RH  095%=      5-min Rain = 0
KMC4 130748Z 09000KT 05/04 A3004 RMK A01 T00510044  RH  095%=      5-min Rain = 0
KMC4 130749Z 09001KT 05/04 A3004 RMK A01 T00520044  RH  095%=      5-min Rain = 0
KMC4 130750Z 10001KT 05/04 A3004 RMK A01 T00520044  RH  095%=      5-min Rain = 0
KMC4 130751Z 10001KT 05/04 A3004 RMK A01 T00520044  RH  095%=      5-min Rain = 0
KMC4 130752Z 10001KT 05/04 A3004 RMK A01 T00520044  RH  095%=      5-min Rain = 0
KMC4 130753Z 09001KT 05/04 A3004 RMK A01 T00520044  RH  095%=      5-min Rain = 0
KMC4 130754Z 08001KT 05/04 A3004 RMK A01 T00520044  RH  095%=      5-min Rain = 0
KMC4 130755Z 08001KT 05/04 A3004 RMK A01 T00520044  RH  094%=      5-min Rain = 0
KMC4 130756Z 09001KT 05/04 A3004 RMK A01 T00520043  RH  094%=      5-min Rain = 0
KMC4 130757Z 09001KT 05/04 A3004 RMK A01 T00520043  RH  094%=      5-min Rain = 0
KMC4 130758Z 09000KT 05/04 A3004 RMK A01 T00520044  RH  094%=      5-min Rain = 0
KMC4 130759Z 09001KT 05/04 A3004 RMK A01 T00530044  RH  094%=      5-min Rain = 0
KMC4 130800Z 09001KT 05/05 A3004 RMK A01 T00530045  RH  094%=      5-min Rain = 0
KMC4 130801Z 09001KT 06/05 A3004 RMK A01 T00550046  RH  094%=      5-min Rain = 0
KMC4 130802Z 09000KT 06/05 A3004 RMK A01 T00560047  RH  094%=      5-min Rain = 0
KMC4 130803Z 00000KT 06/05 A3004 RMK A01 T00560047  RH  094%=      5-min Rain = 0
KMC4 130804Z 00000KT 06/05 A3004 RMK A01 T00560047  RH  093%=      5-min Rain = 0
KMC4 130805Z 00000KT 06/05 A3004 RMK A01 T00560046  RH  093%=      5-min Rain = 0
KMC4 130806Z 00000KT 06/05 A3004 RMK A01 T00560046  RH  093%=      5-min Rain = 0
KMC4 130807Z 00000KT 06/05 A3004 RMK A01 T00560046  RH  093%=      5-min Rain = 0
KMC4 130808Z 00000KT 06/05 A3003 RMK A01 T00560045  RH  093%=      5-min Rain = 0
KMC4 130809Z 15000KT 06/05 A3003 RMK A01 T00560045  RH  093%=      5-min Rain = 0
KMC4 130810Z 14000KT 06/05 A3003 RMK A01 T00550045  RH  093%=      5-min Rain = 0
KMC4 130811Z 00000KT 06/05 A3003 RMK A01 T00550045  RH  093%=      5-min Rain = 0
KMC4 130812Z 14000KT 06/05 A3003 RMK A01 T00550045  RH  093%=      5-min Rain = 0
KMC4 130813Z 00000KT 06/05 A3003 RMK A01 T00550045  RH  093%=      5-min Rain = 0
KMC4 130814Z 00000KT 06/05 A3003 RMK A01 T00550045  RH  093%=      5-min Rain = 0
KMC4 130815Z 16000KT 05/04 A3003 RMK A01 T00540044  RH  093%=      5-min Rain = 0
KMC4 130816Z 16001KT 05/04 A3003 RMK A01 T00540044  RH  093%=      5-min Rain = 0
KMC4 130817Z 16000KT 06/05 A3003 RMK A01 T00550045  RH  094%=      5-min Rain = 0
KMC4 130818Z 16000KT 06/05 A3003 RMK A01 T00550046  RH  094%=      5-min Rain = 0
KMC4 130819Z 00000KT 06/05 A3003 RMK A01 T00560046  RH  093%=      5-min Rain = 0
KMC4 130820Z 00000KT 06/05 A3003 RMK A01 T00560046  RH  093%=      5-min Rain = 0
KMC4 130821Z 00000KT 06/05 A3003 RMK A01 T00560047  RH  094%=      5-min Rain = 0
KMC4 130822Z 00000KT 06/05 A3003 RMK A01 T00570047  RH  093%=      5-min Rain = 0
KMC4 130823Z 00000KT 06/05 A3003 RMK A01 T00570047  RH  093%=      5-min Rain = 0
KMC4 130824Z 00000KT 06/05 A3003 RMK A01 T00580048  RH  093%=      5-min Rain = 0
KMC4 130825Z 00000KT 06/05 A3003 RMK A01 T00590049  RH  093%=      5-min Rain = 0
KMC4 130826Z 00000KT 06/05 A3003 RMK A01 T00610051  RH  093%=      5-min Rain = 0
KMC4 130827Z 00000KT 06/05 A3003 RMK A01 T00620050  RH  092%=      5-min Rain = 0
KMC4 130828Z 00000KT 06/05 A3003 RMK A01 T00610047  RH  091%=      5-min Rain = 0
KMC4 130829Z 00000KT 06/05 A3003 RMK A01 T00600047  RH  091%=      5-min Rain = 0
KMC4 130830Z 00000KT 06/05 A3003 RMK A01 T00600047  RH  092%=      5-min Rain = 0
KMC4 130831Z 16000KT 06/05 A3003 RMK A01 T00600048  RH  092%=      5-min Rain = 0
KMC4 130832Z 16001KT 06/05 A3003 RMK A01 T00610048  RH  092%=      5-min Rain = 0
KMC4 130833Z 15000KT 06/05 A3003 RMK A01 T00610049  RH  092%=      5-min Rain = 0
KMC4 130834Z 00000KT 06/05 A3003 RMK A01 T00610047  RH  091%=      5-min Rain = 0
KMC4 130835Z 00000KT 06/05 A3003 RMK A01 T00590045  RH  090%=      5-min Rain = 0
KMC4 130836Z 00000KT 06/05 A3003 RMK A01 T00590046  RH  091%=      5-min Rain = 0
KMC4 130837Z 00000KT 06/05 A3003 RMK A01 T00590046  RH  091%=      5-min Rain = 0
KMC4 130838Z 00000KT 06/05 A3003 RMK A01 T00590046  RH  092%=      5-min Rain = 0
KMC4 130839Z 00000KT 06/05 A3003 RMK A01 T00600048  RH  092%=      5-min Rain = 0
KMC4 130840Z 00000KT 06/05 A3003 RMK A01 T00610048  RH  092%=      5-min Rain = 0
KMC4 130841Z 14000KT 06/05 A3003 RMK A01 T00620049  RH  092%=      5-min Rain = 0
KMC4 130842Z 15001KT 06/05 A3003 RMK A01 T00630050  RH  091%=      5-min Rain = 0
KMC4 130843Z 18000KT 06/05 A3003 RMK A01 T00630047  RH  090%=      5-min Rain = 0
KMC4 130844Z 17000KT 06/05 A3003 RMK A01 T00620046  RH  090%=      5-min Rain = 0
KMC4 130845Z 16001KT 06/05 A3003 RMK A01 T00620047  RH  090%=      5-min Rain = 0
KMC4 130846Z 15001KT 06/05 A3003 RMK A01 T00620047  RH  090%=      5-min Rain = 0
KMC4 130847Z 15001KT 06/05 A3003 RMK A01 T00620047  RH  090%=      5-min Rain = 0
KMC4 130848Z 16001KT 06/05 A3003 RMK A01 T00620047  RH  090%=      5-min Rain = 0
KMC4 130849Z 16001KT 06/05 A3003 RMK A01 T00620046  RH  090%=      5-min Rain = 0
KMC4 130850Z 17001KT 06/05 A3003 RMK A01 T00620046  RH  090%=      5-min Rain = 0
KMC4 130851Z 17001KT 06/05 A3003 RMK A01 T00620047  RH  090%=      5-min Rain = 0
KMC4 130852Z 19002KT 06/05 A3003 RMK A01 T00620046  RH  090%=      5-min Rain = 0
KMC4 130853Z 19001KT 06/05 A3003 RMK A01 T00620047  RH  090%=      5-min Rain = 0
KMC4 130854Z 19001KT 06/05 A3003 RMK A01 T00620046  RH  090%=      5-min Rain = 0
KMC4 130855Z 19001KT 06/05 A3003 RMK A01 T00610045  RH  090%=      5-min Rain = 0
KMC4 130856Z 19001KT 06/05 A3003 RMK A01 T00610046  RH  090%=      5-min Rain = 0
KMC4 130857Z 19001KT 06/05 A3003 RMK A01 T00610046  RH  090%=      5-min Rain = 0
KMC4 130858Z 19000KT 06/05 A3003 RMK A01 T00610046  RH  090%=      5-min Rain = 0
KMC4 130859Z 00000KT 06/05 A3003 RMK A01 T00610045  RH  090%=      5-min Rain = 0
KMC4 130900Z 00000KT 06/05 A3003 RMK A01 T00600045  RH  090%=      5-min Rain = 0
KMC4 130901Z 00000KT 06/05 A3003 RMK A01 T00600046  RH  091%=      5-min Rain = 0
KMC4 130902Z 00000KT 06/05 A3003 RMK A01 T00610046  RH  090%=      5-min Rain = 0
KMC4 130903Z 00000KT 06/05 A3003 RMK A01 T00610046  RH  090%=      5-min Rain = 0
KMC4 130904Z 00000KT 06/05 A3003 RMK A01 T00610046  RH  090%=      5-min Rain = 0
KMC4 130905Z 00000KT 06/05 A3003 RMK A01 T00620047  RH  090%=      5-min Rain = 0
KMC4 130906Z 00000KT 06/05 A3003 RMK A01 T00610046  RH  090%=      5-min Rain = 0
KMC4 130907Z 00000KT 06/05 A3003 RMK A01 T00610045  RH  090%=      5-min Rain = 0
KMC4 130908Z 00000KT 06/04 A3003 RMK A01 T00600044  RH  089%=      5-min Rain = 0
KMC4 130909Z 00000KT 06/04 A3003 RMK A01 T00590043  RH  090%=      5-min Rain = 0
KMC4 130910Z 00000KT 06/04 A3003 RMK A01 T00590044  RH  090%=      5-min Rain = 0
KMC4 130911Z 00000KT 06/04 A3003 RMK A01 T00590044  RH  090%=      5-min Rain = 0
KMC4 130912Z 00000KT 06/04 A3003 RMK A01 T00580044  RH  090%=      5-min Rain = 0
KMC4 130913Z 00000KT 06/04 A3003 RMK A01 T00580043  RH  090%=      5-min Rain = 0
KMC4 130914Z 00000KT 06/04 A3003 RMK A01 T00570042  RH  090%=      5-min Rain = 0
KMC4 130915Z 00000KT 06/04 A3003 RMK A01 T00570043  RH  091%=      5-min Rain = 0
KMC4 130916Z 00000KT 06/04 A3003 RMK A01 T00560042  RH  091%=      5-min Rain = 0
KMC4 130917Z 00000KT 06/04 A3003 RMK A01 T00560042  RH  091%=      5-min Rain = 0
KMC4 130918Z 00000KT 06/04 A3003 RMK A01 T00560042  RH  091%=      5-min Rain = 0
KMC4 130919Z 00000KT 06/04 A3003 RMK A01 T00560043  RH  091%=      5-min Rain = 0
KMC4 130920Z 00000KT 06/04 A3003 RMK A01 T00560043  RH  091%=      5-min Rain = 0
KMC4 130921Z 00000KT 06/04 A3003 RMK A01 T00560042  RH  091%=      5-min Rain = 0
KMC4 130922Z 00000KT 06/04 A3003 RMK A01 T00560042  RH  091%=      5-min Rain = 0
KMC4 130923Z 00000KT 06/04 A3003 RMK A01 T00560042  RH  091%=      5-min Rain = 0
KMC4 130924Z 00000KT 06/04 A3003 RMK A01 T00560042  RH  091%=      5-min Rain = 0
KMC4 130925Z 00000KT 06/04 A3003 RMK A01 T00560041  RH  090%=      5-min Rain = 0
KMC4 130926Z 00000KT 06/04 A3002 RMK A01 T00550041  RH  091%=      5-min Rain = 0
KMC4 130927Z 00000KT 06/04 A3002 RMK A01 T00550041  RH  091%=      5-min Rain = 0
KMC4 130928Z 00000KT 05/04 A3002 RMK A01 T00540040  RH  091%=      5-min Rain = 0
KMC4 130929Z 00000KT 05/04 A3002 RMK A01 T00540041  RH  091%=      5-min Rain = 0
KMC4 130930Z 00000KT 05/04 A3003 RMK A01 T00540041  RH  091%=      5-min Rain = 0
KMC4 130931Z 00000KT 06/04 A3003 RMK A01 T00550041  RH  091%=      5-min Rain = 0
KMC4 130932Z 00000KT 06/04 A3003 RMK A01 T00550041  RH  091%=      5-min Rain = 0
KMC4 130933Z 14000KT 06/04 A3003 RMK A01 T00550041  RH  091%=      5-min Rain = 0
KMC4 130934Z 01001KT 06/04 A3003 RMK A01 T00550041  RH  091%=      5-min Rain = 0
KMC4 130935Z 02001KT 06/04 A3003 RMK A01 T00550041  RH  091%=      5-min Rain = 0
KMC4 130936Z 02001KT 06/04 A3003 RMK A01 T00550042  RH  091%=      5-min Rain = 0
KMC4 130937Z 03002KT 06/04 A3003 RMK A01 T00550041  RH  091%=      5-min Rain = 0
KMC4 130938Z 03002KT 06/04 A3003 RMK A01 T00550041  RH  091%=      5-min Rain = 0
KMC4 130939Z 03002KT 06/04 A3003 RMK A01 T00550041  RH  091%=      5-min Rain = 0
KMC4 130940Z 03002KT 06/04 A3003 RMK A01 T00550041  RH  091%=      5-min Rain = 0
KMC4 130941Z 03001KT 06/04 A3003 RMK A01 T00550041  RH  091%=      5-min Rain = 0
KMC4 130942Z 03001KT 06/04 A3003 RMK A01 T00550041  RH  091%=      5-min Rain = 0
KMC4 130943Z 03001KT 06/04 A3003 RMK A01 T00550041  RH  091%=      5-min Rain = 0
KMC4 130944Z 03001KT 06/04 A3003 RMK A01 T00550041  RH  090%=      5-min Rain = 0
KMC4 130945Z 03001KT 06/04 A3003 RMK A01 T00550041  RH  090%=      5-min Rain = 0
KMC4 130946Z 03001KT 06/04 A3003 RMK A01 T00550041  RH  090%=      5-min Rain = 0
KMC4 130947Z 03001KT 06/04 A3003 RMK A01 T00550040  RH  090%=      5-min Rain = 0
KMC4 130948Z 03000KT 06/04 A3003 RMK A01 T00550040  RH  090%=      5-min Rain = 0
KMC4 130949Z 03001KT 06/04 A3003 RMK A01 T00560040  RH  089%=      5-min Rain = 0
KMC4 130950Z 03001KT 06/04 A3003 RMK A01 T00570040  RH  089%=      5-min Rain = 0
KMC4 130951Z 04001KT 06/04 A3003 RMK A01 T00560040  RH  089%=      5-min Rain = 0
KMC4 130952Z 05001KT 06/04 A3003 RMK A01 T00560039  RH  089%=      5-min Rain = 0
KMC4 130953Z 05001KT 06/04 A3003 RMK A01 T00570040  RH  089%=      5-min Rain = 0
KMC4 130954Z 04001KT 06/04 A3003 RMK A01 T00560039  RH  089%=      5-min Rain = 0
KMC4 130955Z 04002KT 06/04 A3003 RMK A01 T00560039  RH  089%=      5-min Rain = 0
KMC4 130956Z 04002KT 06/04 A3003 RMK A01 T00550039  RH  089%=      5-min Rain = 0
KMC4 130957Z 04002KT 06/04 A3003 RMK A01 T00550039  RH  090%=      5-min Rain = 0
KMC4 130958Z 04001KT 05/04 A3003 RMK A01 T00540038  RH  089%=      5-min Rain = 0
KMC4 130959Z 04001KT 05/04 A3003 RMK A01 T00540038  RH  089%=      5-min Rain = 0
KMC4 131000Z 04001KT 05/04 A3003 RMK A01 T00540037  RH  089%=      5-min Rain = 0
KMC4 131001Z 04002KT 05/04 A3003 RMK A01 T00540037  RH  089%=      5-min Rain = 0
KMC4 131002Z 04002KT 05/04 A3003 RMK A01 T00540037  RH  089%=      5-min Rain = 0
KMC4 131003Z 04002KT 05/04 A3003 RMK A01 T00530037  RH  089%=      5-min Rain = 0
KMC4 131004Z 03002KT 05/04 A3003 RMK A01 T00540037  RH  089%=      5-min Rain = 0
KMC4 131005Z 04002KT 05/04 A3003 RMK A01 T00540036  RH  088%=      5-min Rain = 0
KMC4 131006Z 04002KT 05/04 A3003 RMK A01 T00540036  RH  088%=      5-min Rain = 0
KMC4 131007Z 05002KT 06/04 A3003 RMK A01 T00550036  RH  088%=      5-min Rain = 0
KMC4 131008Z 07001KT 06/04 A3003 RMK A01 T00550035  RH  087%=      5-min Rain = 0
KMC4 131009Z 08001KT 05/04 A3003 RMK A01 T00540035  RH  087%=      5-min Rain = 0
KMC4 131010Z 09001KT 05/04 A3003 RMK A01 T00540035  RH  088%=      5-min Rain = 0
KMC4 131011Z 11001KT 05/04 A3003 RMK A01 T00530035  RH  088%=      5-min Rain = 0
KMC4 131012Z 11001KT 05/04 A3003 RMK A01 T00530035  RH  088%=      5-min Rain = 0
KMC4 131013Z 10001KT 05/04 A3003 RMK A01 T00530036  RH  088%=      5-min Rain = 0
KMC4 131014Z 10001KT 05/04 A3003 RMK A01 T00530035  RH  089%=      5-min Rain = 0
KMC4 131015Z 11001KT 05/04 A3002 RMK A01 T00520035  RH  089%=      5-min Rain = 0
KMC4 131016Z 12002KT 05/03 A3002 RMK A01 T00510034  RH  089%=      5-min Rain = 0
KMC4 131017Z 13002KT 05/03 A3002 RMK A01 T00490032  RH  089%=      5-min Rain = 0
KMC4 131018Z 13002KT 05/03 A3002 RMK A01 T00470029  RH  089%=      5-min Rain = 0
KMC4 131019Z 12001KT 05/03 A3002 RMK A01 T00450029  RH  089%=      5-min Rain = 0
KMC4 131020Z 00000KT 04/03 A3002 RMK A01 T00440029  RH  090%=      5-min Rain = 0
KMC4 131021Z 00000KT 04/03 A3002 RMK A01 T00440030  RH  091%=      5-min Rain = 0
KMC4 131022Z 12000KT 04/03 A3002 RMK A01 T00440031  RH  091%=      5-min Rain = 0
KMC4 131023Z 12002KT 04/03 A3002 RMK A01 T00440031  RH  092%=      5-min Rain = 0
KMC4 131024Z 12002KT 04/03 A3002 RMK A01 T00440032  RH  092%=      5-min Rain = 0
KMC4 131025Z 13001KT 04/03 A3002 RMK A01 T00440032  RH  093%=      5-min Rain = 0
KMC4 131026Z 15001KT 04/03 A3002 RMK A01 T00440033  RH  093%=      5-min Rain = 0
KMC4 131027Z 14001KT 04/03 A3002 RMK A01 T00430033  RH  093%=      5-min Rain = 0
KMC4 131028Z 14001KT 04/03 A3002 RMK A01 T00430032  RH  093%=      5-min Rain = 0
KMC4 131029Z 13002KT 04/03 A3002 RMK A01 T00430032  RH  093%=      5-min Rain = 0
KMC4 131030Z 15002KT 04/03 A3002 RMK A01 T00430032  RH  093%=      5-min Rain = 0
KMC4 131031Z 16002KT 04/03 A3002 RMK A01 T00420032  RH  093%=      5-min Rain = 0
KMC4 131032Z 17002KT 04/03 A3002 RMK A01 T00420031  RH  093%=      5-min Rain = 0
KMC4 131033Z 14002KT 04/03 A3002 RMK A01 T00410031  RH  093%=      5-min Rain = 0
KMC4 131034Z 14002KT 04/03 A3002 RMK A01 T00410031  RH  093%=      5-min Rain = 0
KMC4 131035Z 15001KT 04/03 A3002 RMK A01 T00410030  RH  093%=      5-min Rain = 0
KMC4 131036Z 14002KT 04/03 A3002 RMK A01 T00400030  RH  093%=      5-min Rain = 0
KMC4 131037Z 13001KT 04/03 A3002 RMK A01 T00390029  RH  093%=      5-min Rain = 0
KMC4 131038Z 13001KT 04/03 A3002 RMK A01 T00390029  RH  093%=      5-min Rain = 0
KMC4 131039Z 15002KT 04/03 A3002 RMK A01 T00390029  RH  093%=      5-min Rain = 0
KMC4 131040Z 15002KT 04/03 A3002 RMK A01 T00390030  RH  093%=      5-min Rain = 0
KMC4 131041Z 15002KT 04/03 A3002 RMK A01 T00400031  RH  094%=      5-min Rain = 0
KMC4 131042Z 15002KT 04/03 A3002 RMK A01 T00410032  RH  094%=      5-min Rain = 0
KMC4 131043Z 15001KT 04/03 A3002 RMK A01 T00410033  RH  094%=      5-min Rain = 0
KMC4 131044Z 16001KT 04/03 A3002 RMK A01 T00420034  RH  094%=      5-min Rain = 0
KMC4 131045Z 16001KT 04/04 A3002 RMK A01 T00430035  RH  095%=      5-min Rain = 0
KMC4 131046Z 17002KT 04/04 A3002 RMK A01 T00430035  RH  095%=      5-min Rain = 0
KMC4 131047Z 18002KT 04/04 A3002 RMK A01 T00430035  RH  094%=      5-min Rain = 0
KMC4 131048Z 18003KT 04/04 A3002 RMK A01 T00430035  RH  094%=      5-min Rain = 0
KMC4 131049Z 19003KT 04/04 A3002 RMK A01 T00440036  RH  095%=      5-min Rain = 0
KMC4 131050Z 19003KT 05/04 A3002 RMK A01 T00450036  RH  094%=      5-min Rain = 0
KMC4 131051Z 19003KT 05/04 A3002 RMK A01 T00450036  RH  094%=      5-min Rain = 0
KMC4 131052Z 19004KT 05/04 A3002 RMK A01 T00450035  RH  094%=      5-min Rain = 0
KMC4 131053Z 18003KT 05/04 A3002 RMK A01 T00450035  RH  093%=      5-min Rain = 0
KMC4 131054Z 19003KT 05/04 A3002 RMK A01 T00450035  RH  093%=      5-min Rain = 0
KMC4 131055Z 19003KT 05/04 A3002 RMK A01 T00450035  RH  093%=      5-min Rain = 0
KMC4 131056Z 19004KT 05/04 A3002 RMK A01 T00460035  RH  093%=      5-min Rain = 0
KMC4 131057Z 19003KT 05/03 A3002 RMK A01 T00450034  RH  093%=      5-min Rain = 0
KMC4 131058Z 19003KT 05/03 A3002 RMK A01 T00450034  RH  092%=      5-min Rain = 0
KMC4 131059Z 18003KT 04/03 A3002 RMK A01 T00440033  RH  092%=      5-min Rain = 0
KMC4 131100Z 18002KT 05/03 A3002 RMK A01 T00450034  RH  093%=      5-min Rain = 0
KMC4 131101Z 19002KT 04/03 A3002 RMK A01 T00440033  RH  093%=      5-min Rain = 0
KMC4 131102Z 18003KT 04/03 A3002 RMK A01 T00440034  RH  093%=      5-min Rain = 0
KMC4 131103Z 18003KT 05/03 A3001 RMK A01 T00450034  RH  093%=      5-min Rain = 0
KMC4 131104Z 18003KT 05/03 A3001 RMK A01 T00450034  RH  093%=      5-min Rain = 0
KMC4 131105Z 18002KT 05/04 A3001 RMK A01 T00450035  RH  093%=      5-min Rain = 0
KMC4 131106Z 19002KT 05/04 A3002 RMK A01 T00450035  RH  093%=      5-min Rain = 0
KMC4 131107Z 20003KT 05/04 A3001 RMK A01 T00450035  RH  093%=      5-min Rain = 0
KMC4 131108Z 19003KT 05/04 A3001 RMK A01 T00460035  RH  093%=      5-min Rain = 0
KMC4 131109Z 17002KT 05/04 A3001 RMK A01 T00460036  RH  093%=      5-min Rain = 0
KMC4 131110Z 19001KT 05/04 A3001 RMK A01 T00470036  RH  093%=      5-min Rain = 0
KMC4 131111Z 19001KT 05/04 A3001 RMK A01 T00470037  RH  093%=      5-min Rain = 0
KMC4 131112Z 21001KT 05/04 A3002 RMK A01 T00470036  RH  092%=      5-min Rain = 0
KMC4 131113Z 21001KT 05/04 A3002 RMK A01 T00480036  RH  092%=      5-min Rain = 0
KMC4 131114Z 23001KT 05/04 A3002 RMK A01 T00480036  RH  092%=      5-min Rain = 0
KMC4 131115Z 23001KT 05/04 A3002 RMK A01 T00490036  RH  092%=      5-min Rain = 0
KMC4 131116Z 24001KT 05/04 A3002 RMK A01 T00490036  RH  091%=      5-min Rain = 0
KMC4 131117Z 23001KT 05/04 A3001 RMK A01 T00500036  RH  091%=      5-min Rain = 0
KMC4 131118Z 23001KT 05/04 A3001 RMK A01 T00510036  RH  090%=      5-min Rain = 0
KMC4 131119Z 23001KT 05/04 A3001 RMK A01 T00510036  RH  090%=      5-min Rain = 0
KMC4 131120Z 23002KT 05/04 A3001 RMK A01 T00520036  RH  089%=      5-min Rain = 0
KMC4 131121Z 23001KT 05/04 A3001 RMK A01 T00520036  RH  089%=      5-min Rain = 0
KMC4 131122Z 24001KT 05/04 A3001 RMK A01 T00520036  RH  089%=      5-min Rain = 0
KMC4 131123Z 24001KT 05/04 A3002 RMK A01 T00520035  RH  089%=      5-min Rain = 0
KMC4 131124Z 25001KT 05/04 A3002 RMK A01 T00530035  RH  088%=      5-min Rain = 0
KMC4 131125Z 25001KT 05/03 A3002 RMK A01 T00530034  RH  087%=      5-min Rain = 0
KMC4 131126Z 25000KT 05/03 A3002 RMK A01 T00540034  RH  087%=      5-min Rain = 0
KMC4 131127Z 23001KT 05/03 A3002 RMK A01 T00540033  RH  087%=      5-min Rain = 0
KMC4 131128Z 25001KT 05/03 A3002 RMK A01 T00540033  RH  087%=      5-min Rain = 0
KMC4 131129Z 26000KT 05/03 A3002 RMK A01 T00540034  RH  087%=      5-min Rain = 0
KMC4 131130Z 27000KT 05/03 A3002 RMK A01 T00540033  RH  087%=      5-min Rain = 0
KMC4 131131Z 27000KT 05/03 A3002 RMK A01 T00540033  RH  086%=      5-min Rain = 0
KMC4 131132Z 27000KT 05/03 A3002 RMK A01 T00540032  RH  086%=      5-min Rain = 0
KMC4 131133Z 27000KT 06/03 A3002 RMK A01 T00560032  RH  085%=      5-min Rain = 0
KMC4 131134Z 28001KT 06/03 A3002 RMK A01 T00560032  RH  084%=      5-min Rain = 0
KMC4 131135Z 28000KT 06/03 A3002 RMK A01 T00570032  RH  084%=      5-min Rain = 0
KMC4 131136Z 28001KT 06/03 A3002 RMK A01 T00570033  RH  084%=      5-min Rain = 0
KMC4 131137Z 27001KT 06/03 A3002 RMK A01 T00570033  RH  084%=      5-min Rain = 0
KMC4 131138Z 26001KT 06/03 A3002 RMK A01 T00570032  RH  084%=      5-min Rain = 0
KMC4 131139Z 27001KT 06/03 A3002 RMK A01 T00560032  RH  084%=      5-min Rain = 0
KMC4 131140Z 27001KT 06/03 A3002 RMK A01 T00560031  RH  084%=      5-min Rain = 0
KMC4 131141Z 27001KT 06/03 A3002 RMK A01 T00560032  RH  085%=      5-min Rain = 0
KMC4 131142Z 27002KT 06/03 A3002 RMK A01 T00560032  RH  085%=      5-min Rain = 0
KMC4 131143Z 26002KT 06/03 A3002 RMK A01 T00560033  RH  085%=      5-min Rain = 0
KMC4 131144Z 26002KT 06/03 A3002 RMK A01 T00550033  RH  086%=      5-min Rain = 0
KMC4 131145Z 26002KT 06/03 A3002 RMK A01 T00550033  RH  086%=      5-min Rain = 0
KMC4 131146Z 27002KT 05/03 A3002 RMK A01 T00540032  RH  086%=      5-min Rain = 0
KMC4 131147Z 28002KT 05/03 A3002 RMK A01 T00540032  RH  086%=      5-min Rain = 0
KMC4 131148Z 28002KT 06/03 A3002 RMK A01 T00550032  RH  086%=      5-min Rain = 0
KMC4 131149Z 27002KT 06/03 A3002 RMK A01 T00550032  RH  085%=      5-min Rain = 0
KMC4 131150Z 27002KT 06/03 A3002 RMK A01 T00550031  RH  085%=      5-min Rain = 0
KMC4 131151Z 27002KT 06/03 A3002 RMK A01 T00560032  RH  084%=      5-min Rain = 0
KMC4 131152Z 27002KT 06/03 A3002 RMK A01 T00560031  RH  084%=      5-min Rain = 0
KMC4 131153Z 28002KT 06/03 A3002 RMK A01 T00570031  RH  084%=      5-min Rain = 0
KMC4 131154Z 29002KT 06/03 A3002 RMK A01 T00560032  RH  084%=      5-min Rain = 0
KMC4 131155Z 31002KT 06/03 A3002 RMK A01 T00550031  RH  085%=      5-min Rain = 0
KMC4 131156Z 30003KT 05/03 A3002 RMK A01 T00530031  RH  085%=      5-min Rain = 0
KMC4 131157Z 29003KT 05/03 A3002 RMK A01 T00520030  RH  086%=      5-min Rain = 0
KMC4 131158Z 30003KT 05/03 A3003 RMK A01 T00520031  RH  086%=      5-min Rain = 0
KMC4 131159Z 30004KT 05/03 A3003 RMK A01 T00520031  RH  086%=      5-min Rain = 0
KMC4 131200Z 29005KT 05/03 A3003 RMK A01 T00530031  RH  086%=      5-min Rain = 0
KMC4 131201Z 30004KT 05/03 A3003 RMK A01 T00540031  RH  085%=      5-min Rain = 0
KMC4 131202Z 31004KT 06/03 A3004 RMK A01 T00550031  RH  085%=      5-min Rain = 0
KMC4 131203Z 31004KT 06/03 A3004 RMK A01 T00550030  RH  084%=      5-min Rain = 0
KMC4 131204Z 30005KT 06/03 A3003 RMK A01 T00550030  RH  084%=      5-min Rain = 0
KMC4 131205Z 29005KT 06/03 A3003 RMK A01 T00550030  RH  084%=      5-min Rain = 0
KMC4 131206Z 31005KT 06/03 A3003 RMK A01 T00560030  RH  083%=      5-min Rain = 0
KMC4 131207Z 30005KT 06/03 A3003 RMK A01 T00580030  RH  082%=      5-min Rain = 0
KMC4 131208Z 30004KT 06/03 A3003 RMK A01 T00590030  RH  082%=      5-min Rain = 0
KMC4 131209Z 29006KT 06/03 A3003 RMK A01 T00600030  RH  081%=      5-min Rain = 0
KMC4 131210Z 29006KT 06/03 A3003 RMK A01 T00620030  RH  080%=      5-min Rain = 0
KMC4 131211Z 28005KT 06/03 A3003 RMK A01 T00630030  RH  080%=      5-min Rain = 0
KMC4 131212Z 29005KT 06/03 A3003 RMK A01 T00630029  RH  079%=      5-min Rain = 0
KMC4 131213Z 29005KT 06/03 A3003 RMK A01 T00630029  RH  079%=      5-min Rain = 0
KMC4 131214Z 29006KT 06/03 A3003 RMK A01 T00620029  RH  079%=      5-min Rain = 0
KMC4 131215Z 29005KT 06/03 A3003 RMK A01 T00610029  RH  080%=      5-min Rain = 0
KMC4 131216Z 29006KT 06/03 A3003 RMK A01 T00600029  RH  080%=      5-min Rain = 0
KMC4 131217Z 29006KT 06/03 A3003 RMK A01 T00600029  RH  081%=      5-min Rain = 0
KMC4 131218Z 29006KT 06/03 A3003 RMK A01 T00590029  RH  081%=      5-min Rain = 0
KMC4 131219Z 29006KT 06/03 A3003 RMK A01 T00590029  RH  081%=      5-min Rain = 0
KMC4 131220Z 29005KT 06/03 A3003 RMK A01 T00580029  RH  082%=      5-min Rain = 0
KMC4 131221Z 29005KT 06/03 A3003 RMK A01 T00570029  RH  082%=      5-min Rain = 0
KMC4 131222Z 29005KT 06/03 A3003 RMK A01 T00560029  RH  082%=      5-min Rain = 0
KMC4 131223Z 28005KT 06/03 A3002 RMK A01 T00560029  RH  083%=      5-min Rain = 0
KMC4 131224Z 28004KT 06/03 A3002 RMK A01 T00550029  RH  083%=      5-min Rain = 0
KMC4 131225Z 27003KT 05/03 A3002 RMK A01 T00540029  RH  084%=      5-min Rain = 0
KMC4 131226Z 27003KT 05/03 A3002 RMK A01 T00530028  RH  084%=      5-min Rain = 0
KMC4 131227Z 26003KT 05/03 A3002 RMK A01 T00510027  RH  085%=      5-min Rain = 0
KMC4 131228Z 26002KT 05/03 A3002 RMK A01 T00490027  RH  085%=      5-min Rain = 0
KMC4 131229Z 27002KT 05/03 A3002 RMK A01 T00470025  RH  086%=      5-min Rain = 0
KMC4 131230Z 27002KT 05/02 A3002 RMK A01 T00450023  RH  086%=      5-min Rain = 0
KMC4 131231Z 27001KT 04/02 A3002 RMK A01 T00430023  RH  087%=      5-min Rain = 0
KMC4 131232Z 27001KT 04/02 A3002 RMK A01 T00410022  RH  087%=      5-min Rain = 0
KMC4 131233Z 26001KT 04/02 A3002 RMK A01 T00390021  RH  088%=      5-min Rain = 0
KMC4 131234Z 27000KT 04/02 A3002 RMK A01 T00370019  RH  088%=      5-min Rain = 0
KMC4 131235Z 27000KT 04/02 A3002 RMK A01 T00350018  RH  089%=      5-min Rain = 0
KMC4 131236Z 24001KT 03/02 A3002 RMK A01 T00340020  RH  090%=      5-min Rain = 0
KMC4 131237Z 28000KT 03/02 A3002 RMK A01 T00340021  RH  091%=      5-min Rain = 0
KMC4 131238Z 26000KT 04/02 A3002 RMK A01 T00360024  RH  092%=      5-min Rain = 0
KMC4 131239Z 27001KT 04/03 A3002 RMK A01 T00370026  RH  092%=      5-min Rain = 0
KMC4 131240Z 27001KT 04/03 A3002 RMK A01 T00380026  RH  092%=      5-min Rain = 0
KMC4 131241Z 30001KT 04/03 A3002 RMK A01 T00400028  RH  092%=      5-min Rain = 0
KMC4 131242Z 00000KT 04/03 A3002 RMK A01 T00420029  RH  091%=      5-min Rain = 0
KMC4 131243Z 00000KT 04/03 A3003 RMK A01 T00430029  RH  090%=      5-min Rain = 0
KMC4 131244Z 18000KT 05/03 A3003 RMK A01 T00450029  RH  090%=      5-min Rain = 0
KMC4 131245Z 17000KT 05/03 A3003 RMK A01 T00460029  RH  089%=      5-min Rain = 0
KMC4 131246Z 16000KT 05/03 A3003 RMK A01 T00470029  RH  088%=      5-min Rain = 0
KMC4 131247Z 14000KT 05/03 A3003 RMK A01 T00470028  RH  088%=      5-min Rain = 0
KMC4 131248Z 07000KT 05/03 A3003 RMK A01 T00480028  RH  087%=      5-min Rain = 0
KMC4 131249Z 07000KT 05/03 A3003 RMK A01 T00490028  RH  087%=      5-min Rain = 0
KMC4 131250Z 06000KT 05/03 A3003 RMK A01 T00490028  RH  086%=      5-min Rain = 0
KMC4 131251Z 03001KT 05/03 A3003 RMK A01 T00500028  RH  086%=      5-min Rain = 0
KMC4 131252Z 03002KT 05/03 A3003 RMK A01 T00500029  RH  086%=      5-min Rain = 0
KMC4 131253Z 03002KT 05/03 A3003 RMK A01 T00500028  RH  086%=      5-min Rain = 0
KMC4 131254Z 01002KT 05/03 A3003 RMK A01 T00500028  RH  086%=      5-min Rain = 0
KMC4 131255Z 34001KT 05/03 A3003 RMK A01 T00500028  RH  086%=      5-min Rain = 0
KMC4 131256Z 34000KT 05/03 A3003 RMK A01 T00510029  RH  086%=      5-min Rain = 0
KMC4 131257Z 34000KT 05/03 A3004 RMK A01 T00520029  RH  085%=      5-min Rain = 0
KMC4 131258Z 34001KT 05/03 A3004 RMK A01 T00520029  RH  085%=      5-min Rain = 0
KMC4 131259Z 33001KT 05/03 A3004 RMK A01 T00530029  RH  085%=      5-min Rain = 0
KMC4 131300Z 00000KT 05/03 A3004 RMK A01 T00530029  RH  084%=      5-min Rain = 0
KMC4 131301Z 01000KT 05/03 A3004 RMK A01 T00530028  RH  084%=      5-min Rain = 0
KMC4 131302Z 00000KT 05/03 A3004 RMK A01 T00530028  RH  084%=      5-min Rain = 0
KMC4 131303Z 00000KT 05/03 A3004 RMK A01 T00530028  RH  084%=      5-min Rain = 0
KMC4 131304Z 00000KT 05/03 A3004 RMK A01 T00520028  RH  084%=      5-min Rain = 0
KMC4 131305Z 00000KT 05/03 A3004 RMK A01 T00520028  RH  084%=      5-min Rain = 0
KMC4 131306Z 00000KT 05/03 A3003 RMK A01 T00520028  RH  084%=      5-min Rain = 0
KMC4 131307Z 00000KT 05/03 A3003 RMK A01 T00520028  RH  085%=      5-min Rain = 0
KMC4 131308Z 00000KT 05/03 A3003 RMK A01 T00520028  RH  085%=      5-min Rain = 0
KMC4 131309Z 00000KT 05/03 A3004 RMK A01 T00520028  RH  085%=      5-min Rain = 0
KMC4 131310Z 30001KT 05/03 A3004 RMK A01 T00520028  RH  084%=      5-min Rain = 0
KMC4 131311Z 30000KT 05/03 A3004 RMK A01 T00520027  RH  085%=      5-min Rain = 0
KMC4 131312Z 31000KT 05/03 A3004 RMK A01 T00510027  RH  085%=      5-min Rain = 0
KMC4 131313Z 31000KT 05/03 A3004 RMK A01 T00500027  RH  085%=      5-min Rain = 0
KMC4 131314Z 30001KT 05/03 A3004 RMK A01 T00500028  RH  085%=      5-min Rain = 0
KMC4 131315Z 31001KT 05/03 A3004 RMK A01 T00500028  RH  085%=      5-min Rain = 0
KMC4 131316Z 29001KT 05/03 A3004 RMK A01 T00520028  RH  085%=      5-min Rain = 0
KMC4 131317Z 29002KT 05/03 A3005 RMK A01 T00520028  RH  084%=      5-min Rain = 0
KMC4 131318Z 31003KT 05/03 A3005 RMK A01 T00520028  RH  084%=      5-min Rain = 0
KMC4 131319Z 32003KT 05/03 A3005 RMK A01 T00520028  RH  084%=      5-min Rain = 0
KMC4 131320Z 33003KT 05/03 A3005 RMK A01 T00530028  RH  084%=      5-min Rain = 0
KMC4 131321Z 33003KT 05/03 A3006 RMK A01 T00540028  RH  084%=      5-min Rain = 0
KMC4 131322Z 34004KT 06/03 A3006 RMK A01 T00550028  RH  083%=      5-min Rain = 0
KMC4 131323Z 34003KT 06/03 A3006 RMK A01 T00560028  RH  082%=      5-min Rain = 0
KMC4 131324Z 33003KT 06/03 A3006 RMK A01 T00570028  RH  081%=      5-min Rain = 0
KMC4 131325Z 33003KT 06/03 A3005 RMK A01 T00570027  RH  081%=      5-min Rain = 0
KMC4 131326Z 33002KT 06/03 A3005 RMK A01 T00570027  RH  081%=      5-min Rain = 0
KMC4 131327Z 32002KT 06/03 A3005 RMK A01 T00560026  RH  081%=      5-min Rain = 0
KMC4 131328Z 32003KT 06/03 A3005 RMK A01 T00550026  RH  081%=      5-min Rain = 0
KMC4 131329Z 32003KT 06/03 A3005 RMK A01 T00550026  RH  082%=      5-min Rain = 0
KMC4 131330Z 32003KT 06/03 A3005 RMK A01 T00550026  RH  082%=      5-min Rain = 0
KMC4 131331Z 32003KT 06/03 A3005 RMK A01 T00550026  RH  082%=      5-min Rain = 0
KMC4 131332Z 33004KT 06/03 A3005 RMK A01 T00550026  RH  082%=      5-min Rain = 0
KMC4 131333Z 33004KT 06/03 A3005 RMK A01 T00560026  RH  081%=      5-min Rain = 0
KMC4 131334Z 32003KT 06/03 A3005 RMK A01 T00560026  RH  081%=      5-min Rain = 0
KMC4 131335Z 31004KT 06/03 A3005 RMK A01 T00560026  RH  081%=      5-min Rain = 0
KMC4 131336Z 31004KT 06/03 A3005 RMK A01 T00550025  RH  081%=      5-min Rain = 0
KMC4 131337Z 31004KT 05/03 A3005 RMK A01 T00540025  RH  082%=      5-min Rain = 0
KMC4 131338Z 31004KT 05/03 A3005 RMK A01 T00530025  RH  082%=      5-min Rain = 0
KMC4 131339Z 31003KT 05/03 A3005 RMK A01 T00530025  RH  082%=      5-min Rain = 0
KMC4 131340Z 31003KT 05/03 A3005 RMK A01 T00520025  RH  082%=      5-min Rain = 0
KMC4 131341Z 31003KT 05/02 A3005 RMK A01 T00520024  RH  083%=      5-min Rain = 0
KMC4 131342Z 31003KT 05/03 A3005 RMK A01 T00520025  RH  083%=      5-min Rain = 0
KMC4 131343Z 30004KT 05/03 A3005 RMK A01 T00520025  RH  083%=      5-min Rain = 0
KMC4 131344Z 30003KT 05/02 A3005 RMK A01 T00520024  RH  082%=      5-min Rain = 0
KMC4 131345Z 30003KT 05/03 A3005 RMK A01 T00530025  RH  082%=      5-min Rain = 0
KMC4 131346Z 30003KT 05/03 A3005 RMK A01 T00530025  RH  082%=      5-min Rain = 0
KMC4 131347Z 29003KT 05/03 A3005 RMK A01 T00530025  RH  082%=      5-min Rain = 0
KMC4 131348Z 29003KT 05/02 A3005 RMK A01 T00530024  RH  082%=      5-min Rain = 0
KMC4 131349Z 29003KT 05/02 A3005 RMK A01 T00530024  RH  082%=      5-min Rain = 0
KMC4 131350Z 28002KT 05/02 A3004 RMK A01 T00530024  RH  082%=      5-min Rain = 0
KMC4 131351Z 28002KT 05/02 A3004 RMK A01 T00530024  RH  082%=      5-min Rain = 0
KMC4 131352Z 27002KT 05/02 A3004 RMK A01 T00530024  RH  082%=      5-min Rain = 0
KMC4 131353Z 27001KT 05/02 A3004 RMK A01 T00530024  RH  082%=      5-min Rain = 0
KMC4 131354Z 27001KT 05/02 A3004 RMK A01 T00520023  RH  082%=      5-min Rain = 0
KMC4 131355Z 26002KT 05/02 A3004 RMK A01 T00480019  RH  082%=      5-min Rain = 0
KMC4 131356Z 25002KT 05/02 A3004 RMK A01 T00450018  RH  083%=      5-min Rain = 0
KMC4 131357Z 24002KT 04/02 A3004 RMK A01 T00410016  RH  084%=      5-min Rain = 0
KMC4 131358Z 23002KT 04/01 A3004 RMK A01 T00380014  RH  084%=      5-min Rain = 0
KMC4 131359Z 22002KT 04/01 A3004 RMK A01 T00350013  RH  086%=      5-min Rain = 0
KMC4 131400Z 22002KT 03/01 A3004 RMK A01 T00330013  RH  087%=      5-min Rain = 0
KMC4 131401Z 22002KT 03/01 A3004 RMK A01 T00310014  RH  088%=      5-min Rain = 0
KMC4 131402Z 22002KT 03/01 A3004 RMK A01 T00310014  RH  089%=      5-min Rain = 0
KMC4 131403Z 22002KT 03/02 A3004 RMK A01 T00300015  RH  090%=      5-min Rain = 0
KMC4 131404Z 22002KT 03/02 A3004 RMK A01 T00300016  RH  090%=      5-min Rain = 0
KMC4 131405Z 22001KT 03/02 A3005 RMK A01 T00310018  RH  091%=      5-min Rain = 0
KMC4 131406Z 22001KT 03/02 A3005 RMK A01 T00330020  RH  091%=      5-min Rain = 0
KMC4 131407Z 22002KT 04/02 A3005 RMK A01 T00350022  RH  092%=      5-min Rain = 0
KMC4 131408Z 22002KT 04/02 A3005 RMK A01 T00360023  RH  091%=      5-min Rain = 0
KMC4 131409Z 20002KT 04/02 A3005 RMK A01 T00360022  RH  091%=      5-min Rain = 0
KMC4 131410Z 20001KT 04/02 A3005 RMK A01 T00370022  RH  090%=      5-min Rain = 0
KMC4 131411Z 20001KT 04/02 A3006 RMK A01 T00380024  RH  090%=      5-min Rain = 0
KMC4 131412Z 20001KT 04/03 A3006 RMK A01 T00400026  RH  090%=      5-min Rain = 0
KMC4 131413Z 21002KT 04/03 A3006 RMK A01 T00420028  RH  090%=      5-min Rain = 0
KMC4 131414Z 22002KT 04/03 A3006 RMK A01 T00440027  RH  089%=      5-min Rain = 0
KMC4 131415Z 22002KT 05/03 A3006 RMK A01 T00450026  RH  087%=      5-min Rain = 0
KMC4 131416Z 23002KT 05/03 A3006 RMK A01 T00460025  RH  086%=      5-min Rain = 0
KMC4 131417Z 22002KT 05/03 A3006 RMK A01 T00470025  RH  086%=      5-min Rain = 0
KMC4 131418Z 21002KT 05/03 A3006 RMK A01 T00490026  RH  085%=      5-min Rain = 0
KMC4 131419Z 20002KT 05/03 A3006 RMK A01 T00510027  RH  084%=      5-min Rain = 0
KMC4 131420Z 20002KT 05/03 A3005 RMK A01 T00530027  RH  083%=      5-min Rain = 0
KMC4 131421Z 20002KT 05/03 A3005 RMK A01 T00530026  RH  083%=      5-min Rain = 0
KMC4 131422Z 20002KT 05/03 A3005 RMK A01 T00530025  RH  082%=      5-min Rain = 0
KMC4 131423Z 21002KT 05/03 A3005 RMK A01 T00530025  RH  082%=      5-min Rain = 0
KMC4 131424Z 21001KT 05/03 A3005 RMK A01 T00520026  RH  083%=      5-min Rain = 0
KMC4 131425Z 20000KT 05/03 A3005 RMK A01 T00520026  RH  083%=      5-min Rain = 0
KMC4 131426Z 22000KT 05/03 A3005 RMK A01 T00520027  RH  084%=      5-min Rain = 0
KMC4 131427Z 00000KT 05/03 A3005 RMK A01 T00520027  RH  084%=      5-min Rain = 0
KMC4 131428Z 00000KT 05/03 A3005 RMK A01 T00520028  RH  084%=      5-min Rain = 0
KMC4 131429Z 00000KT 05/03 A3005 RMK A01 T00520028  RH  085%=      5-min Rain = 0
KMC4 131430Z 00000KT 05/03 A3005 RMK A01 T00520028  RH  084%=      5-min Rain = 0
KMC4 131431Z 21001KT 05/03 A3005 RMK A01 T00530029  RH  084%=      5-min Rain = 0
KMC4 131432Z 20001KT 06/03 A3005 RMK A01 T00550030  RH  084%=      5-min Rain = 0
KMC4 131433Z 20001KT 06/03 A3005 RMK A01 T00570032  RH  084%=      5-min Rain = 0
KMC4 131434Z 18001KT 06/03 A3005 RMK A01 T00590032  RH  083%=      5-min Rain = 0
KMC4 131435Z 18001KT 06/03 A3005 RMK A01 T00600033  RH  083%=      5-min Rain = 0
KMC4 131436Z 17001KT 06/03 A3004 RMK A01 T00610033  RH  083%=      5-min Rain = 0
KMC4 131437Z 15001KT 06/03 A3004 RMK A01 T00610033  RH  082%=      5-min Rain = 0
KMC4 131438Z 15001KT 06/03 A3004 RMK A01 T00610033  RH  083%=      5-min Rain = 0
KMC4 131439Z 16001KT 06/03 A3004 RMK A01 T00610034  RH  083%=      5-min Rain = 0
KMC4 131440Z 15002KT 06/04 A3004 RMK A01 T00610035  RH  083%=      5-min Rain = 0
KMC4 131441Z 14002KT 06/04 A3004 RMK A01 T00610036  RH  084%=      5-min Rain = 0
KMC4 131442Z 14001KT 06/04 A3004 RMK A01 T00610037  RH  084%=      5-min Rain = 0
KMC4 131443Z 14001KT 06/04 A3004 RMK A01 T00620037  RH  084%=      5-min Rain = 0
KMC4 131444Z 13002KT 06/04 A3004 RMK A01 T00630037  RH  084%=      5-min Rain = 0
KMC4 131445Z 14001KT 06/04 A3004 RMK A01 T00640039  RH  084%=      5-min Rain = 0
KMC4 131446Z 15001KT 07/04 A3005 RMK A01 T00650038  RH  083%=      5-min Rain = 0
KMC4 131447Z 15000KT 07/04 A3005 RMK A01 T00660039  RH  083%=      5-min Rain = 0
KMC4 131448Z 15000KT 07/04 A3005 RMK A01 T00670039  RH  082%=      5-min Rain = 0
KMC4 131449Z 27000KT 07/04 A3005 RMK A01 T00680039  RH  082%=      5-min Rain = 0
KMC4 131450Z 00000KT 07/04 A3005 RMK A01 T00690039  RH  081%=      5-min Rain = 0
KMC4 131451Z 00000KT 07/04 A3005 RMK A01 T00700039  RH  081%=      5-min Rain = 0
KMC4 131452Z 00000KT 07/04 A3005 RMK A01 T00700040  RH  081%=      5-min Rain = 0
KMC4 131453Z 00000KT 07/04 A3005 RMK A01 T00720041  RH  081%=      5-min Rain = 0
KMC4 131454Z 00000KT 07/04 A3005 RMK A01 T00720041  RH  080%=      5-min Rain = 0
KMC4 131455Z 00000KT 07/04 A3005 RMK A01 T00730039  RH  079%=      5-min Rain = 0
KMC4 131456Z 00000KT 07/04 A3005 RMK A01 T00730039  RH  079%=      5-min Rain = 0
KMC4 131457Z 00000KT 07/04 A3006 RMK A01 T00730038  RH  078%=      5-min Rain = 0
KMC4 131458Z 00000KT 07/04 A3006 RMK A01 T00740039  RH  078%=      5-min Rain = 0
KMC4 131459Z 00000KT 08/04 A3006 RMK A01 T00750040  RH  078%=      5-min Rain = 0
KMC4 131500Z 00000KT 08/04 A3006 RMK A01 T00770042  RH  079%=      5-min Rain = 0
KMC4 131501Z 00000KT 08/04 A3006 RMK A01 T00780043  RH  078%=      5-min Rain = 0
KMC4 131502Z 00000KT 08/04 A3006 RMK A01 T00800043  RH  077%=      5-min Rain = 0
KMC4 131503Z 25000KT 08/04 A3006 RMK A01 T00810042  RH  076%=      5-min Rain = 0
KMC4 131504Z 00000KT 08/04 A3006 RMK A01 T00820042  RH  075%=      5-min Rain = 0
KMC4 131505Z 00000KT 08/04 A3006 RMK A01 T00840041  RH  074%=      5-min Rain = 0
KMC4 131506Z 25001KT 09/04 A3006 RMK A01 T00850041  RH  074%=      5-min Rain = 0
KMC4 131507Z 00000KT 09/04 A3006 RMK A01 T00860042  RH  074%=      5-min Rain = 0
KMC4 131508Z 25000KT 09/04 A3006 RMK A01 T00860040  RH  073%=      5-min Rain = 0
KMC4 131509Z 24000KT 09/04 A3006 RMK A01 T00860040  RH  073%=      5-min Rain = 0
KMC4 131510Z 30000KT 09/04 A3006 RMK A01 T00860043  RH  075%=      5-min Rain = 0
KMC4 131511Z 29000KT 09/05 A3006 RMK A01 T00860045  RH  075%=      5-min Rain = 0
KMC4 131512Z 26000KT 09/05 A3006 RMK A01 T00860045  RH  075%=      5-min Rain = 0
KMC4 131513Z 28001KT 09/05 A3006 RMK A01 T00870047  RH  076%=      5-min Rain = 0
KMC4 131514Z 29002KT 09/05 A3007 RMK A01 T00870047  RH  076%=      5-min Rain = 0
KMC4 131515Z 30001KT 09/05 A3007 RMK A01 T00870047  RH  076%=      5-min Rain = 0
KMC4 131516Z 30002KT 09/05 A3007 RMK A01 T00880048  RH  076%=      5-min Rain = 0
KMC4 131517Z 31004KT 09/05 A3007 RMK A01 T00890046  RH  075%=      5-min Rain = 0
KMC4 131518Z 30004KT 09/04 A3007 RMK A01 T00910044  RH  072%=      5-min Rain = 0
KMC4 131519Z 29002KT 09/05 A3007 RMK A01 T00930047  RH  073%=      5-min Rain = 0
KMC4 131520Z 30002KT 09/05 A3007 RMK A01 T00940046  RH  072%=      5-min Rain = 0
KMC4 131521Z 30004KT 10/05 A3007 RMK A01 T00950046  RH  071%=      5-min Rain = 0
KMC4 131522Z 29004KT 10/04 A3007 RMK A01 T00960044  RH  070%=      5-min Rain = 0
KMC4 131523Z 29003KT 10/04 A3007 RMK A01 T00960043  RH  070%=      5-min Rain = 0
KMC4 131524Z 29004KT 10/05 A3007 RMK A01 T00960045  RH  070%=      5-min Rain = 0
KMC4 131525Z 29003KT 10/05 A3007 RMK A01 T00970046  RH  070%=      5-min Rain = 0
KMC4 131526Z 30003KT 10/05 A3007 RMK A01 T00980045  RH  070%=      5-min Rain = 0
KMC4 131527Z 30005KT 10/05 A3007 RMK A01 T00990045  RH  069%=      5-min Rain = 0
KMC4 131528Z 30004KT 10/05 A3007 RMK A01 T01000045  RH  069%=      5-min Rain = 0
KMC4 131529Z 28004KT 10/05 A3007 RMK A01 T01000046  RH  069%=      5-min Rain = 0
KMC4 131530Z 29006KT 10/05 A3007 RMK A01 T01010046  RH  068%=      5-min Rain = 0
KMC4 131531Z 28005KT 10/04 A3007 RMK A01 T01020044  RH  067%=      5-min Rain = 0
KMC4 131532Z 28006KT 10/05 A3007 RMK A01 T01020045  RH  067%=      5-min Rain = 0
KMC4 131533Z 28006KT 10/04 A3007 RMK A01 T01030044  RH  067%=      5-min Rain = 0
KMC4 131534Z 28006KT 10/04 A3007 RMK A01 T01030044  RH  067%=      5-min Rain = 0
KMC4 131535Z 28005KT 10/04 A3007 RMK A01 T01030043  RH  066%=      5-min Rain = 0
KMC4 131536Z 28006KT 10/05 A3007 RMK A01 T01040045  RH  067%=      5-min Rain = 0
KMC4 131537Z 28006KT 10/05 A3007 RMK A01 T01040045  RH  067%=      5-min Rain = 0
KMC4 131538Z 28005KT 10/04 A3007 RMK A01 T01040043  RH  066%=      5-min Rain = 0
KMC4 131539Z 27005KT 11/04 A3007 RMK A01 T01050044  RH  066%=      5-min Rain = 0
KMC4 131540Z 28006KT 11/05 A3007 RMK A01 T01060048  RH  068%=      5-min Rain = 0
KMC4 131541Z 28007KT 11/05 A3007 RMK A01 T01060045  RH  066%=      5-min Rain = 0
KMC4 131542Z 27005KT 11/05 A3007 RMK A01 T01070047  RH  066%=      5-min Rain = 0
KMC4 131543Z 28005KT 11/05 A3007 RMK A01 T01070047  RH  066%=      5-min Rain = 0
KMC4 131544Z 27005KT 11/05 A3007 RMK A01 T01080047  RH  066%=      5-min Rain = 0
KMC4 131545Z 27005KT 11/05 A3006 RMK A01 T01080049  RH  067%=      5-min Rain = 0
KMC4 131546Z 28005KT 11/05 A3006 RMK A01 T01090050  RH  067%=      5-min Rain = 0
KMC4 131547Z 28006KT 11/05 A3006 RMK A01 T01100046  RH  065%=      5-min Rain = 0
KMC4 131548Z 29006KT 11/04 A3006 RMK A01 T01100044  RH  064%=      5-min Rain = 0
KMC4 131549Z 28007KT 11/05 A3006 RMK A01 T01110047  RH  065%=      5-min Rain = 0
KMC4 131550Z 28008KT 11/05 A3007 RMK A01 T01110047  RH  064%=      5-min Rain = 0
KMC4 131551Z 29006KT 11/05 A3007 RMK A01 T01120048  RH  065%=      5-min Rain = 0
KMC4 131552Z 29006KT 11/05 A3006 RMK A01 T01130049  RH  065%=      5-min Rain = 0
KMC4 131553Z 30008KT 12/05 A3006 RMK A01 T01150050  RH  065%=      5-min Rain = 0
KMC4 131554Z 30009KT 12/05 A3006 RMK A01 T01150047  RH  063%=      5-min Rain = 0
KMC4 131555Z 29009KT 12/05 A3007 RMK A01 T01160048  RH  063%=      5-min Rain = 0
KMC4 131556Z 29010KT 12/05 A3007 RMK A01 T01160047  RH  063%=      5-min Rain = 0
KMC4 131557Z 29010KT 12/05 A3007 RMK A01 T01170045  RH  061%=      5-min Rain = 0
KMC4 131558Z 29010KT 12/05 A3007 RMK A01 T01180045  RH  061%=      5-min Rain = 0
KMC4 131559Z 29011KT 12/05 A3006 RMK A01 T01180046  RH  061%=      5-min Rain = 0
KMC4 131600Z 29008KT 12/05 A3006 RMK A01 T01180046  RH  061%=      5-min Rain = 0
KMC4 131601Z 28008KT 12/05 A3006 RMK A01 T01190048  RH  061%=      5-min Rain = 0
KMC4 131602Z 28012KT 12/05 A3006 RMK A01 T01200046  RH  060%=      5-min Rain = 0
KMC4 131603Z 29011KT 12/05 A3006 RMK A01 T01210046  RH  060%=      5-min Rain = 0
KMC4 131604Z 28011KT 12/05 A3006 RMK A01 T01210048  RH  061%=      5-min Rain = 0
KMC4 131605Z 28010KT 12/05 A3006 RMK A01 T01220048  RH  061%=      5-min Rain = 0
KMC4 131606Z 28008KT 12/05 A3006 RMK A01 T01220050  RH  062%=      5-min Rain = 0
KMC4 131607Z 28010KT 12/05 A3007 RMK A01 T01240053  RH  062%=      5-min Rain = 0
KMC4 131608Z 29010KT 12/05 A3007 RMK A01 T01240050  RH  060%=      5-min Rain = 0
KMC4 131609Z 29009KT 13/05 A3007 RMK A01 T01250050  RH  060%=      5-min Rain = 0
KMC4 131610Z 29009KT 13/05 A3007 RMK A01 T01260050  RH  060%=      5-min Rain = 0
KMC4 131611Z 29010KT 13/05 A3007 RMK A01 T01270053  RH  060%=      5-min Rain = 0
KMC4 131612Z 29013KT 13/05 A3007 RMK A01 T01280050  RH  059%=      5-min Rain = 0
KMC4 131613Z 29013KT 13/05 A3007 RMK A01 T01280047  RH  058%=      5-min Rain = 0
KMC4 131614Z 29014KT 13/05 A3007 RMK A01 T01270047  RH  058%=      5-min Rain = 0
KMC4 131615Z 29011KT 13/05 A3007 RMK A01 T01280048  RH  058%=      5-min Rain = 0
KMC4 131616Z 29012KT 13/05 A3007 RMK A01 T01270052  RH  060%=      5-min Rain = 0
KMC4 131617Z 29015KT 13/05 A3007 RMK A01 T01280048  RH  058%=      5-min Rain = 0
KMC4 131618Z 29015KT 13/05 A3007 RMK A01 T01280046  RH  058%=      5-min Rain = 0
KMC4 131619Z 29014KT 13/05 A3007 RMK A01 T01270046  RH  058%=      5-min Rain = 0
KMC4 131620Z 29014KT 13/05 A3007 RMK A01 T01270048  RH  059%=      5-min Rain = 0
KMC4 131621Z 29012KT 13/05 A3007 RMK A01 T01260048  RH  059%=      5-min Rain = 0
KMC4 131622Z 28011KT 13/05 A3007 RMK A01 T01270051  RH  060%=      5-min Rain = 0
KMC4 131623Z 28014KT 13/05 A3007 RMK A01 T01280052  RH  060%=      5-min Rain = 0
KMC4 131624Z 29012KT 13/05 A3007 RMK A01 T01280051  RH  060%=      5-min Rain = 0
KMC4 131625Z 29011KT 13/05 A3007 RMK A01 T01280051  RH  060%=      5-min Rain = 0
KMC4 131626Z 29010KT 13/05 A3007 RMK A01 T01280051  RH  060%=      5-min Rain = 0
KMC4 131627Z 29010KT 13/05 A3007 RMK A01 T01280052  RH  060%=      5-min Rain = 0
KMC4 131628Z 29011KT 13/05 A3007 RMK A01 T01290052  RH  059%=      5-min Rain = 0
KMC4 131629Z 29011KT 13/05 A3007 RMK A01 T01300051  RH  059%=      5-min Rain = 0
KMC4 131630Z 29010KT 13/05 A3007 RMK A01 T01300050  RH  058%=      5-min Rain = 0
KMC4 131631Z 28010KT 13/06 A3007 RMK A01 T01300056  RH  061%=      5-min Rain = 0
KMC4 131632Z 28011KT 13/05 A3006 RMK A01 T01310053  RH  059%=      5-min Rain = 0
KMC4 131633Z 28011KT 13/05 A3006 RMK A01 T01310052  RH  059%=      5-min Rain = 0
KMC4 131634Z 28013KT 13/05 A3006 RMK A01 T01300053  RH  059%=      5-min Rain = 0
KMC4 131635Z 28013KT 13/05 A3006 RMK A01 T01300052  RH  059%=      5-min Rain = 0
KMC4 131636Z 28013KT 13/05 A3006 RMK A01 T01300051  RH  059%=      5-min Rain = 0
KMC4 131637Z 28012KT 13/05 A3006 RMK A01 T01300053  RH  060%=      5-min Rain = 0
KMC4 131638Z 29011KT 13/05 A3006 RMK A01 T01300053  RH  060%=      5-min Rain = 0
KMC4 131639Z 29011KT 13/05 A3006 RMK A01 T01310054  RH  060%=      5-min Rain = 0
KMC4 131640Z 28008KT 13/06 A3006 RMK A01 T01310055  RH  060%=      5-min Rain = 0
KMC4 131641Z 28009KT 13/05 A3006 RMK A01 T01320054  RH  059%=      5-min Rain = 0
KMC4 131642Z 29009KT 13/06 A3006 RMK A01 T01330059  RH  061%=      5-min Rain = 0
KMC4 131643Z 28009KT 13/06 A3006 RMK A01 T01340058  RH  060%=      5-min Rain = 0
KMC4 131644Z 28010KT 14/06 A3006 RMK A01 T01350056  RH  059%=      5-min Rain = 0
KMC4 131645Z 29010KT 14/06 A3006 RMK A01 T01350056  RH  059%=      5-min Rain = 0
KMC4 131646Z 29010KT 14/06 A3006 RMK A01 T01350055  RH  058%=      5-min Rain = 0
KMC4 131647Z 28010KT 14/06 A3006 RMK A01 T01350056  RH  059%=      5-min Rain = 0
KMC4 131648Z 29009KT 14/06 A3006 RMK A01 T01350058  RH  059%=      5-min Rain = 0
KMC4 131649Z 28010KT 14/06 A3006 RMK A01 T01360055  RH  058%=      5-min Rain = 0
KMC4 131650Z 28010KT 14/05 A3006 RMK A01 T01360054  RH  057%=      5-min Rain = 0
KMC4 131651Z 29011KT 14/06 A3006 RMK A01 T01360055  RH  058%=      5-min Rain = 0
KMC4 131652Z 29009KT 14/05 A3006 RMK A01 T01360053  RH  057%=      5-min Rain = 0
KMC4 131653Z 28011KT 14/06 A3006 RMK A01 T01360056  RH  058%=      5-min Rain = 0
KMC4 131654Z 28010KT 14/05 A3005 RMK A01 T01370054  RH  057%=      5-min Rain = 0
KMC4 131655Z 28009KT 14/05 A3005 RMK A01 T01370054  RH  057%=      5-min Rain = 0
KMC4 131656Z 28008KT 14/05 A3005 RMK A01 T01370054  RH  057%=      5-min Rain = 0
KMC4 131657Z 29008KT 14/06 A3005 RMK A01 T01380057  RH  058%=      5-min Rain = 0
KMC4 131658Z 29008KT 14/06 A3005 RMK A01 T01390058  RH  058%=      5-min Rain = 0
KMC4 131659Z 29009KT 14/06 A3005 RMK A01 T01410058  RH  058%=      5-min Rain = 0
KMC4 131700Z 29009KT 14/06 A3005 RMK A01 T01410056  RH  056%=      5-min Rain = 0
KMC4 131701Z 29009KT 14/06 A3006 RMK A01 T01410055  RH  056%=      5-min Rain = 0
KMC4 131702Z 28008KT 14/06 A3006 RMK A01 T01410059  RH  058%=      5-min Rain = 0
KMC4 131703Z 28008KT 14/06 A3006 RMK A01 T01410058  RH  057%=      5-min Rain = 0
KMC4 131704Z 28008KT 14/06 A3006 RMK A01 T01420056  RH  056%=      5-min Rain = 0
KMC4 131705Z 28007KT 14/05 A3006 RMK A01 T01410054  RH  056%=      5-min Rain = 0
KMC4 131706Z 28008KT 14/06 A3006 RMK A01 T01420059  RH  057%=      5-min Rain = 0
KMC4 131707Z 28006KT 14/06 A3006 RMK A01 T01430061  RH  058%=      5-min Rain = 0
KMC4 131708Z 27007KT 15/06 A3006 RMK A01 T01450064  RH  058%=      5-min Rain = 0
KMC4 131709Z 27007KT 15/06 A3006 RMK A01 T01460061  RH  056%=      5-min Rain = 0
KMC4 131710Z 29008KT 15/06 A3006 RMK A01 T01470064  RH  057%=      5-min Rain = 0
KMC4 131711Z 27008KT 15/06 A3006 RMK A01 T01470059  RH  055%=      5-min Rain = 0
KMC4 131712Z 27007KT 15/06 A3006 RMK A01 T01460058  RH  055%=      5-min Rain = 0
KMC4 131713Z 29005KT 15/06 A3006 RMK A01 T01460062  RH  057%=      5-min Rain = 0
KMC4 131714Z 30006KT 15/06 A3006 RMK A01 T01470059  RH  056%=      5-min Rain = 0
KMC4 131715Z 29008KT 15/06 A3006 RMK A01 T01470059  RH  055%=      5-min Rain = 0
KMC4 131716Z 28007KT 15/06 A3005 RMK A01 T01470059  RH  055%=      5-min Rain = 0
KMC4 131717Z 28006KT 15/06 A3005 RMK A01 T01480059  RH  055%=      5-min Rain = 0
KMC4 131718Z 30007KT 15/06 A3005 RMK A01 T01480059  RH  055%=      5-min Rain = 0
KMC4 131719Z 29008KT 15/06 A3005 RMK A01 T01480059  RH  055%=      5-min Rain = 0
KMC4 131720Z 29007KT 15/06 A3005 RMK A01 T01490062  RH  056%=      5-min Rain = 0
KMC4 131721Z 29006KT 15/07 A3005 RMK A01 T01500065  RH  057%=      5-min Rain = 0
KMC4 131722Z 30006KT 15/06 A3005 RMK A01 T01520064  RH  056%=      5-min Rain = 0
KMC4 131723Z 30007KT 15/06 A3005 RMK A01 T01530063  RH  055%=      5-min Rain = 0
KMC4 131724Z 29007KT 15/06 A3005 RMK A01 T01530061  RH  054%=      5-min Rain = 0
KMC4 131725Z 29005KT 15/06 A3005 RMK A01 T01520062  RH  055%=      5-min Rain = 0
KMC4 131726Z 29005KT 15/07 A3005 RMK A01 T01530065  RH  056%=      5-min Rain = 0
KMC4 131727Z 30007KT 15/06 A3005 RMK A01 T01540064  RH  055%=      5-min Rain = 0
KMC4 131728Z 29007KT 16/06 A3005 RMK A01 T01550063  RH  054%=      5-min Rain = 0
KMC4 131729Z 29007KT 16/06 A3005 RMK A01 T01560063  RH  054%=      5-min Rain = 0
KMC4 131730Z 28008KT 16/06 A3005 RMK A01 T01560062  RH  053%=      5-min Rain = 0
KMC4 131731Z 27007KT 16/07 A3005 RMK A01 T01560065  RH  054%=      5-min Rain = 0
KMC4 131732Z 29006KT 16/07 A3005 RMK A01 T01570069  RH  056%=      5-min Rain = 0
KMC4 131733Z 30006KT 16/07 A3005 RMK A01 T01600067  RH  054%=      5-min Rain = 0
KMC4 131734Z 30008KT 16/06 A3005 RMK A01 T01600064  RH  053%=      5-min Rain = 0
KMC4 131735Z 30007KT 16/06 A3005 RMK A01 T01600063  RH  053%=      5-min Rain = 0
KMC4 131736Z 29007KT 16/06 A3005 RMK A01 T01600063  RH  053%=      5-min Rain = 0
KMC4 131737Z 28007KT 16/06 A3005 RMK A01 T01600063  RH  052%=      5-min Rain = 0
KMC4 131738Z 27005KT 16/07 A3005 RMK A01 T01600065  RH  053%=      5-min Rain = 0
KMC4 131739Z 28005KT 16/07 A3005 RMK A01 T01610066  RH  053%=      5-min Rain = 0
KMC4 131740Z 27006KT 16/07 A3005 RMK A01 T01620065  RH  053%=      5-min Rain = 0
KMC4 131741Z 28007KT 16/06 A3005 RMK A01 T01620064  RH  052%=      5-min Rain = 0
KMC4 131742Z 28006KT 16/07 A3004 RMK A01 T01630066  RH  053%=      5-min Rain = 0
KMC4 131743Z 28007KT 17/07 A3004 RMK A01 T01650067  RH  052%=      5-min Rain = 0
KMC4 131744Z 28008KT 17/07 A3004 RMK A01 T01660068  RH  052%=      5-min Rain = 0
KMC4 131745Z 29008KT 17/07 A3004 RMK A01 T01680068  RH  052%=      5-min Rain = 0
KMC4 131746Z 29009KT 17/07 A3004 RMK A01 T01690065  RH  050%=      5-min Rain = 0
KMC4 131747Z 28009KT 17/06 A3004 RMK A01 T01690064  RH  050%=      5-min Rain = 0
KMC4 131748Z 28008KT 17/07 A3004 RMK A01 T01710065  RH  050%=      5-min Rain = 0
KMC4 131749Z 28009KT 17/06 A3004 RMK A01 T01720063  RH  049%=      5-min Rain = 0
KMC4 131750Z 27006KT 17/06 A3004 RMK A01 T01720063  RH  049%=      5-min Rain = 0
KMC4 131751Z 28006KT 17/07 A3004 RMK A01 T01730068  RH  050%=      5-min Rain = 0
KMC4 131752Z 29008KT 18/07 A3004 RMK A01 T01750069  RH  050%=      5-min Rain = 0
KMC4 131753Z 28009KT 18/07 A3004 RMK A01 T01770068  RH  049%=      5-min Rain = 0
KMC4 131754Z 28007KT 18/07 A3004 RMK A01 T01790071  RH  049%=      5-min Rain = 0
KMC4 131755Z 28008KT 18/07 A3004 RMK A01 T01800071  RH  049%=      5-min Rain = 0
KMC4 131756Z 28007KT 18/07 A3003 RMK A01 T01810069  RH  048%=      5-min Rain = 0
KMC4 131757Z 27009KT 18/07 A3003 RMK A01 T01810068  RH  048%=      5-min Rain = 0
KMC4 131758Z 28010KT 18/07 A3003 RMK A01 T01830067  RH  047%=      5-min Rain = 0
KMC4 131759Z 27011KT 19/07 A3003 RMK A01 T01850067  RH  046%=      5-min Rain = 0
KMC4 131800Z 27011KT 19/06 A3003 RMK A01 T01860064  RH  045%=      5-min Rain = 0
KMC4 131801Z 28012KT 19/06 A3003 RMK A01 T01870062  RH  044%=      5-min Rain = 0
KMC4 131802Z 28011KT 19/06 A3003 RMK A01 T01880060  RH  043%=      5-min Rain = 0
KMC4 131803Z 28012KT 19/06 A3003 RMK A01 T01880059  RH  043%=      5-min Rain = 0
KMC4 131804Z 29012KT 19/06 A3003 RMK A01 T01880059  RH  043%=      5-min Rain = 0
KMC4 131805Z 28010KT 19/06 A3002 RMK A01 T01880062  RH  044%=      5-min Rain = 0
KMC4 131806Z 27009KT 19/07 A3002 RMK A01 T01900067  RH  045%=      5-min Rain = 0
KMC4 131807Z 27012KT 19/06 A3002 RMK A01 T01920063  RH  043%=      5-min Rain = 0
KMC4 131808Z 27010KT 19/06 A3002 RMK A01 T01920060  RH  042%=      5-min Rain = 0
KMC4 131809Z 28011KT 19/06 A3002 RMK A01 T01930062  RH  042%=      5-min Rain = 0
KMC4 131810Z 28010KT 19/07 A3002 RMK A01 T01940067  RH  043%=      5-min Rain = 0
KMC4 131811Z 28014KT 20/07 A3002 RMK A01 T01960066  RH  043%=      5-min Rain = 0
KMC4 131812Z 28012KT 20/06 A3002 RMK A01 T01960062  RH  041%=      5-min Rain = 0
KMC4 131813Z 28014KT 20/06 A3002 RMK A01 T01960064  RH  042%=      5-min Rain = 0
KMC4 131814Z 27013KT 20/06 A3002 RMK A01 T01960058  RH  040%=      5-min Rain = 0
KMC4 131815Z 27013KT 20/06 A3002 RMK A01 T01960060  RH  041%=      5-min Rain = 0
KMC4 131816Z 28011KT 20/06 A3002 RMK A01 T01960060  RH  041%=      5-min Rain = 0
KMC4 131817Z 28012KT 20/07 A3002 RMK A01 T01970065  RH  042%=      5-min Rain = 0
KMC4 131818Z 28011KT 20/06 A3002 RMK A01 T01980063  RH  041%=      5-min Rain = 0
KMC4 131819Z 29012KT 20/06 A3002 RMK A01 T01990064  RH  041%=      5-min Rain = 0
KMC4 131820Z 28013KT 20/06 A3002 RMK A01 T01990060  RH  040%=      5-min Rain = 0
KMC4 131821Z 29011KT 20/06 A3002 RMK A01 T01990059  RH  040%=      5-min Rain = 0
KMC4 131822Z 29012KT 20/06 A3002 RMK A01 T02000063  RH  041%=      5-min Rain = 0
KMC4 131823Z 29013KT 20/06 A3002 RMK A01 T02010060  RH  040%=      5-min Rain = 0
KMC4 131824Z 29013KT 20/06 A3002 RMK A01 T02010058  RH  039%=      5-min Rain = 0
KMC4 131825Z 29012KT 20/06 A3002 RMK A01 T02010059  RH  039%=      5-min Rain = 0
KMC4 131826Z 29010KT 20/06 A3002 RMK A01 T02010062  RH  040%=      5-min Rain = 0
KMC4 131827Z 29013KT 20/06 A3001 RMK A01 T02020058  RH  039%=      5-min Rain = 0
KMC4 131828Z 28013KT 20/06 A3001 RMK A01 T02030057  RH  039%=      5-min Rain = 0
KMC4 131829Z 28011KT 20/06 A3001 RMK A01 T02030056  RH  038%=      5-min Rain = 0
KMC4 131830Z 29012KT 20/06 A3001 RMK A01 T02040061  RH  039%=      5-min Rain = 0
KMC4 131831Z 29012KT 20/06 A3001 RMK A01 T02040059  RH  039%=      5-min Rain = 0
KMC4 131832Z 28012KT 20/06 A30 RMK A01 T02040061  RH  039%=      5-min Rain = 0
KMC4 131833Z 27014KT 20/06 A30 RMK A01 T02040057  RH  038%=      5-min Rain = 0
KMC4 131834Z 28012KT 20/06 A30 RMK A01 T02040056  RH  038%=      5-min Rain = 0
KMC4 131835Z 28012KT 20/06 A30 RMK A01 T02040061  RH  039%=      5-min Rain = 0
KMC4 131836Z 28014KT 20/06 A30 RMK A01 T02040057  RH  038%=      5-min Rain = 0
KMC4 131837Z 28012KT 20/06 A30 RMK A01 T02040056  RH  038%=      5-min Rain = 0
KMC4 131838Z 28010KT 20/06 A30 RMK A01 T02040059  RH  039%=      5-min Rain = 0
KMC4 131839Z 29009KT 21/07 A30 RMK A01 T02050067  RH  041%=      5-min Rain = 0
KMC4 131840Z 29009KT 21/06 A30 RMK A01 T02060062  RH  039%=      5-min Rain = 0
KMC4 131841Z 28009KT 21/06 A2999 RMK A01 T02070063  RH  039%=      5-min Rain = 0
KMC4 131842Z 28009KT 21/06 A2999 RMK A01 T02080063  RH  039%=      5-min Rain = 0
KMC4 131843Z 28011KT 21/06 A2999 RMK A01 T02090064  RH  039%=      5-min Rain = 0
KMC4 131844Z 29012KT 21/06 A2999 RMK A01 T02090058  RH  037%=      5-min Rain = 0
KMC4 131845Z 29012KT 21/06 A2999 RMK A01 T02090059  RH  038%=      5-min Rain = 0
KMC4 131846Z 28009KT 21/06 A2999 RMK A01 T02100061  RH  038%=      5-min Rain = 0
KMC4 131847Z 29011KT 21/06 A2999 RMK A01 T02100064  RH  039%=      5-min Rain = 0
KMC4 131848Z 29013KT 21/06 A2999 RMK A01 T02110062  RH  038%=      5-min Rain = 0
KMC4 131849Z 28013KT 21/06 A2999 RMK A01 T02110061  RH  038%=      5-min Rain = 0
KMC4 131850Z 27011KT 21/06 A2999 RMK A01 T02110061  RH  038%=      5-min Rain = 0
KMC4 131851Z 28009KT 21/06 A2999 RMK A01 T02110058  RH  037%=      5-min Rain = 0
KMC4 131852Z 28009KT 21/07 A2999 RMK A01 T02120068  RH  039%=      5-min Rain = 0
KMC4 131853Z 28011KT 21/06 A2999 RMK A01 T02130063  RH  037%=      5-min Rain = 0
KMC4 131854Z 28012KT 21/06 A2998 RMK A01 T02140057  RH  036%=      5-min Rain = 0
KMC4 131855Z 28009KT 21/06 A2998 RMK A01 T02140064  RH  038%=      5-min Rain = 0
KMC4 131856Z 28012KT 22/06 A2998 RMK A01 T02150061  RH  037%=      5-min Rain = 0
KMC4 131857Z 28013KT 22/06 A2998 RMK A01 T02150058  RH  036%=      5-min Rain = 0
KMC4 131858Z 27013KT 22/05 A2998 RMK A01 T02160053  RH  034%=      5-min Rain = 0
KMC4 131859Z 27012KT 22/06 A2998 RMK A01 T02160056  RH  035%=      5-min Rain = 0
KMC4 131900Z 28012KT 22/06 A2997 RMK A01 T02160057  RH  035%=      5-min Rain = 0
KMC4 131901Z 27012KT 22/06 A2997 RMK A01 T02170062  RH  037%=      5-min Rain = 0
KMC4 131902Z 28011KT 22/06 A2997 RMK A01 T02170058  RH  036%=      5-min Rain = 0
KMC4 131903Z 27012KT 22/06 A2997 RMK A01 T02170060  RH  036%=      5-min Rain = 0
KMC4 131904Z 26012KT 22/06 A2997 RMK A01 T02170061  RH  036%=      5-min Rain = 0
KMC4 131905Z 27011KT 22/06 A2997 RMK A01 T02170056  RH  035%=      5-min Rain = 0
KMC4 131906Z 29011KT 22/06 A2997 RMK A01 T02170062  RH  036%=      5-min Rain = 0
KMC4 131907Z 29015KT 22/06 A2997 RMK A01 T02180056  RH  035%=      5-min Rain = 0
KMC4 131908Z 29011KT 22/06 A2997 RMK A01 T02190055  RH  034%=      5-min Rain = 0
KMC4 131909Z 29013KT 22/06 A2997 RMK A01 T02190058  RH  035%=      5-min Rain = 0
KMC4 131910Z 29009KT 22/06 A2997 RMK A01 T02190056  RH  035%=      5-min Rain = 0
KMC4 131911Z 30012KT 22/06 A2997 RMK A01 T02200062  RH  036%=      5-min Rain = 0
KMC4 131912Z 30013KT 22/06 A2997 RMK A01 T02210059  RH  035%=      5-min Rain = 0
KMC4 131913Z 30012KT 22/06 A2997 RMK A01 T02220060  RH  035%=      5-min Rain = 0
KMC4 131914Z 29012KT 22/06 A2997 RMK A01 T02220056  RH  034%=      5-min Rain = 0
KMC4 131915Z 29012KT 22/06 A2997 RMK A01 T02220055  RH  034%=      5-min Rain = 0
KMC4 131916Z 29013KT 22/06 A2997 RMK A01 T02220055  RH  034%=      5-min Rain = 0
KMC4 131917Z 28010KT 22/06 A2996 RMK A01 T02230061  RH  035%=      5-min Rain = 0
KMC4 131918Z 29011KT 22/06 A2996 RMK A01 T02240064  RH  035%=      5-min Rain = 0
KMC4 131919Z 28011KT 23/06 A2996 RMK A01 T02250061  RH  034%=      5-min Rain = 0
KMC4 131920Z 28011KT 23/06 A2996 RMK A01 T02250059  RH  034%=      5-min Rain = 0
KMC4 131921Z 27010KT 23/06 A2996 RMK A01 T02250064  RH  035%=      5-min Rain = 0
KMC4 131922Z 27013KT 23/06 A2996 RMK A01 T02260059  RH  034%=      5-min Rain = 0
KMC4 131923Z 27012KT 23/06 A2996 RMK A01 T02260057  RH  033%=      5-min Rain = 0
KMC4 131924Z 27011KT 23/06 A2996 RMK A01 T02260058  RH  034%=      5-min Rain = 0
KMC4 131925Z 28012KT 23/06 A2996 RMK A01 T02260063  RH  035%=      5-min Rain = 0
KMC4 131926Z 28011KT 23/06 A2996 RMK A01 T02260061  RH  034%=      5-min Rain = 0
KMC4 131927Z 27010KT 23/06 A2995 RMK A01 T02280061  RH  034%=      5-min Rain = 0
KMC4 131928Z 27010KT 23/07 A2995 RMK A01 T02290065  RH  035%=      5-min Rain = 0
KMC4 131929Z 27010KT 23/06 A2995 RMK A01 T02300061  RH  034%=      5-min Rain = 0
KMC4 131930Z 28011G16KT 23/06 A2995 RMK A01 T02290062  RH  034%=      5-min Rain = 0
KMC4 131931Z 28013KT 23/06 A2995 RMK A01 T02280057  RH  033%=      5-min Rain = 0
KMC4 131932Z 28011KT 23/06 A2995 RMK A01 T02270058  RH  033%=      5-min Rain = 0
KMC4 131933Z 28013KT 23/06 A2995 RMK A01 T02270060  RH  034%=      5-min Rain = 0
KMC4 131934Z 29011KT 23/06 A2995 RMK A01 T02270059  RH  034%=      5-min Rain = 0
KMC4 131935Z 30012KT 23/06 A2995 RMK A01 T02280058  RH  033%=      5-min Rain = 0
KMC4 131936Z 29011KT 23/06 A2995 RMK A01 T02280055  RH  032%=      5-min Rain = 0
KMC4 131937Z 28012KT 23/06 A2995 RMK A01 T02290060  RH  034%=      5-min Rain = 0
KMC4 131938Z 28012KT 23/06 A2995 RMK A01 T02290057  RH  033%=      5-min Rain = 0
KMC4 131939Z 26014KT 23/06 A2995 RMK A01 T02290056  RH  033%=      5-min Rain = 0
KMC4 131940Z 27013KT 23/06 A2995 RMK A01 T02290056  RH  032%=      5-min Rain = 0
KMC4 131941Z 27013KT 23/07 A2995 RMK A01 T02300065  RH  034%=      5-min Rain = 0
KMC4 131942Z 27015KT 23/06 A2995 RMK A01 T02300058  RH  033%=      5-min Rain = 0
KMC4 131943Z 27014KT 23/06 A2995 RMK A01 T02300058  RH  033%=      5-min Rain = 0
KMC4 131944Z 27014KT 23/06 A2995 RMK A01 T02300057  RH  032%=      5-min Rain = 0
KMC4 131945Z 27014G19KT 23/05 A2995 RMK A01 T02290053  RH  032%=      5-min Rain = 0
KMC4 131946Z 27016KT 23/05 A2995 RMK A01 T02280051  RH  032%=      5-min Rain = 0
KMC4 131947Z 27012KT 23/05 A2995 RMK A01 T02260052  RH  032%=      5-min Rain = 0
KMC4 131948Z 28014KT 23/06 A2995 RMK A01 T02250057  RH  034%=      5-min Rain = 0
KMC4 131949Z 28013KT 23/05 A2995 RMK A01 T02250051  RH  032%=      5-min Rain = 0
KMC4 131950Z 27013KT 23/05 A2995 RMK A01 T02250054  RH  033%=      5-min Rain = 0
KMC4 131951Z 28013KT 23/05 A2995 RMK A01 T02250051  RH  032%=      5-min Rain = 0
KMC4 131952Z 27011KT 23/06 A2995 RMK A01 T02250055  RH  033%=      5-min Rain = 0
KMC4 131953Z 26013G19KT 23/06 A2995 RMK A01 T02260062  RH  035%=      5-min Rain = 0
KMC4 131954Z 27016KT 23/05 A2994 RMK A01 T02270048  RH  031%=      5-min Rain = 0
KMC4 131955Z 27014G19KT 23/05 A2994 RMK A01 T02280053  RH  032%=      5-min Rain = 0
KMC4 131956Z 27013KT 23/06 A2994 RMK A01 T02300058  RH  033%=      5-min Rain = 0
KMC4 131957Z 27015KT 23/05 A2994 RMK A01 T02300048  RH  031%=      5-min Rain = 0
KMC4 131958Z 27013KT 23/05 A2994 RMK A01 T02300050  RH  031%=      5-min Rain = 0
KMC4 131959Z 27014KT 23/05 A2994 RMK A01 T02300051  RH  031%=      5-min Rain = 0
KMC4 132000Z 26014KT 23/05 A2994 RMK A01 T02300051  RH  031%=      5-min Rain = 0
KMC4 132001Z 27014KT 23/05 A2994 RMK A01 T02300051  RH  031%=      5-min Rain = 0
KMC4 132002Z 28016KT 23/05 A2994 RMK A01 T02310050  RH  031%=      5-min Rain = 0
KMC4 132003Z 27013KT 23/05 A2994 RMK A01 T02310050  RH  031%=      5-min Rain = 0
KMC4 132004Z 27012KT 23/05 A2994 RMK A01 T02310050  RH  031%=      5-min Rain = 0
KMC4 132005Z 27014KT 23/05 A2994 RMK A01 T02320049  RH  030%=      5-min Rain = 0
KMC4 132006Z 27014KT 23/05 A2994 RMK A01 T02320049  RH  030%=      5-min Rain = 0
KMC4 132007Z 27012KT 23/06 A2994 RMK A01 T02320055  RH  032%=      5-min Rain = 0
KMC4 132008Z 27013KT 23/06 A2994 RMK A01 T02340055  RH  032%=      5-min Rain = 0
KMC4 132009Z 27015KT 23/05 A2994 RMK A01 T02340049  RH  030%=      5-min Rain = 0
KMC4 132010Z 27016KT 24/05 A2994 RMK A01 T02350051  RH  030%=      5-min Rain = 0
KMC4 132011Z 27015KT 23/05 A2994 RMK A01 T02340048  RH  030%=      5-min Rain = 0
KMC4 132012Z 28013KT 23/05 A2994 RMK A01 T02340052  RH  031%=      5-min Rain = 0
KMC4 132013Z 27013KT 23/05 A2994 RMK A01 T02340053  RH  031%=      5-min Rain = 0
KMC4 132014Z 27013KT 24/05 A2994 RMK A01 T02350052  RH  031%=      5-min Rain = 0
KMC4 132015Z 27015KT 24/05 A2994 RMK A01 T02350050  RH  030%=      5-min Rain = 0
KMC4 132016Z 27015KT 24/05 A2994 RMK A01 T02350048  RH  030%=      5-min Rain = 0
KMC4 132017Z 27012KT 23/05 A2994 RMK A01 T02340051  RH  031%=      5-min Rain = 0
KMC4 132018Z 27011KT 23/06 A2994 RMK A01 T02340055  RH  031%=      5-min Rain = 0
KMC4 132019Z 27014KT 23/05 A2994 RMK A01 T02340053  RH  031%=      5-min Rain = 0
KMC4 132020Z 27014KT 24/05 A2994 RMK A01 T02350050  RH  030%=      5-min Rain = 0
KMC4 132021Z 27012KT 24/05 A2994 RMK A01 T02350053  RH  031%=      5-min Rain = 0
KMC4 132022Z 28012G17KT 24/05 A2994 RMK A01 T02350054  RH  031%=      5-min Rain = 0
KMC4 132023Z 28014KT 24/06 A2994 RMK A01 T02350055  RH  031%=      5-min Rain = 0
KMC4 132024Z 29015KT 24/05 A2994 RMK A01 T02360050  RH  030%=      5-min Rain = 0
KMC4 132025Z 28014KT 24/05 A2994 RMK A01 T02350049  RH  030%=      5-min Rain = 0
KMC4 132026Z 28015KT 24/05 A2994 RMK A01 T02350048  RH  030%=      5-min Rain = 0
KMC4 132027Z 28014KT 24/05 A2994 RMK A01 T02350047  RH  029%=      5-min Rain = 0
KMC4 132028Z 28013KT 24/05 A2994 RMK A01 T02350051  RH  030%=      5-min Rain = 0
KMC4 132029Z 28016KT 24/05 A2994 RMK A01 T02350047  RH  029%=      5-min Rain = 0
KMC4 132030Z 28014KT 24/04 A2994 RMK A01 T02350041  RH  028%=      5-min Rain = 0
KMC4 132031Z 28013KT 24/05 A2993 RMK A01 T02350047  RH  030%=      5-min Rain = 0
KMC4 132032Z 28016KT 24/05 A2993 RMK A01 T02350045  RH  029%=      5-min Rain = 0
KMC4 132033Z 28018KT 24/04 A2993 RMK A01 T02350040  RH  028%=      5-min Rain = 0
KMC4 132034Z 29016KT 24/04 A2993 RMK A01 T02360041  RH  028%=      5-min Rain = 0
KMC4 132035Z 29016KT 24/04 A2993 RMK A01 T02360042  RH  028%=      5-min Rain = 0
KMC4 132036Z 29015KT 24/04 A2993 RMK A01 T02370041  RH  028%=      5-min Rain = 0
KMC4 132037Z 28014KT 24/04 A2993 RMK A01 T02360043  RH  028%=      5-min Rain = 0
KMC4 132038Z 29014KT 24/04 A2993 RMK A01 T02370044  RH  029%=      5-min Rain = 0
KMC4 132039Z 29015KT 24/04 A2993 RMK A01 T02370042  RH  028%=      5-min Rain = 0
KMC4 132040Z 29013KT 24/04 A2993 RMK A01 T02370043  RH  028%=      5-min Rain = 0
KMC4 132041Z 28013KT 24/05 A2993 RMK A01 T02370046  RH  029%=      5-min Rain = 0
KMC4 132042Z 27014KT 24/05 A2993 RMK A01 T02370046  RH  029%=      5-min Rain = 0
KMC4 132043Z 28014KT 24/05 A2993 RMK A01 T02380046  RH  029%=      5-min Rain = 0
KMC4 132044Z 28012KT 24/05 A2993 RMK A01 T02380046  RH  029%=      5-min Rain = 0
KMC4 132045Z 28012KT 24/05 A2993 RMK A01 T02390049  RH  029%=      5-min Rain = 0
KMC4 132046Z 28015KT 24/04 A2993 RMK A01 T02390043  RH  028%=      5-min Rain = 0
KMC4 132047Z 28014KT 24/04 A2993 RMK A01 T02400039  RH  027%=      5-min Rain = 0
KMC4 132048Z 29013KT 24/04 A2993 RMK A01 T02400035  RH  026%=      5-min Rain = 0
KMC4 132049Z 28011KT 24/04 A2993 RMK A01 T02400041  RH  027%=      5-min Rain = 0
KMC4 132050Z 29011KT 24/04 A2993 RMK A01 T02410041  RH  027%=      5-min Rain = 0
KMC4 132051Z 28011KT 24/04 A2993 RMK A01 T02410044  RH  028%=      5-min Rain = 0
KMC4 132052Z 28013G19KT 24/04 A2993 RMK A01 T02420041  RH  027%=      5-min Rain = 0
KMC4 132053Z 28016KT 24/03 A2993 RMK A01 T02420032  RH  025%=      5-min Rain = 0
KMC4 132054Z 28015KT 24/03 A2993 RMK A01 T02410029  RH  025%=      5-min Rain = 0
KMC4 132055Z 28015KT 24/04 A2993 RMK A01 T02400036  RH  027%=      5-min Rain = 0
KMC4 132056Z 28014KT 24/04 A2993 RMK A01 T02390038  RH  027%=      5-min Rain = 0
KMC4 132057Z 29011KT 24/04 A2993 RMK A01 T02390039  RH  027%=      5-min Rain = 0
KMC4 132058Z 29012KT 24/03 A2993 RMK A01 T02390034  RH  026%=      5-min Rain = 0
KMC4 132059Z 29012KT 24/03 A2993 RMK A01 T02390034  RH  026%=      5-min Rain = 0
KMC4 132100Z 29012KT 24/04 A2993 RMK A01 T02400037  RH  027%=      5-min Rain = 0
KMC4 132101Z 28013KT 24/04 A2993 RMK A01 T02400037  RH  027%=      5-min Rain = 0
KMC4 132102Z 29012KT 24/04 A2993 RMK A01 T02400040  RH  027%=      5-min Rain = 0
KMC4 132103Z 30013KT 24/04 A2993 RMK A01 T02410037  RH  027%=      5-min Rain = 0
KMC4 132104Z 29013KT 24/03 A2993 RMK A01 T02410034  RH  026%=      5-min Rain = 0
KMC4 132105Z 29013KT 24/04 A2993 RMK A01 T02410035  RH  026%=      5-min Rain = 0
KMC4 132106Z 28014KT 24/03 A2993 RMK A01 T02410032  RH  026%=      5-min Rain = 0
KMC4 132107Z 29014KT 24/03 A2993 RMK A01 T02410033  RH  026%=      5-min Rain = 0
KMC4 132108Z 28014KT 24/03 A2993 RMK A01 T02410026  RH  025%=      5-min Rain = 0
KMC4 132109Z 28013KT 24/03 A2993 RMK A01 T02410025  RH  024%=      5-min Rain = 0
KMC4 132110Z 29012KT 24/03 A2993 RMK A01 T02410033  RH  026%=      5-min Rain = 0
KMC4 132111Z 29013KT 24/03 A2993 RMK A01 T02420032  RH  025%=      5-min Rain = 0
KMC4 132112Z 29016KT 24/03 A2993 RMK A01 T02430027  RH  024%=      5-min Rain = 0
KMC4 132113Z 28015KT 24/03 A2993 RMK A01 T02430029  RH  025%=      5-min Rain = 0
KMC4 132114Z 28014KT 24/03 A2993 RMK A01 T02420029  RH  025%=      5-min Rain = 0
KMC4 132115Z 28013KT 24/03 A2993 RMK A01 T02410031  RH  025%=      5-min Rain = 0
KMC4 132116Z 29014KT 24/03 A2993 RMK A01 T02410030  RH  025%=      5-min Rain = 0
KMC4 132117Z 29013KT 24/03 A2993 RMK A01 T02410030  RH  025%=      5-min Rain = 0
KMC4 132118Z 29012G17KT 24/03 A2993 RMK A01 T02410030  RH  025%=      5-min Rain = 0
KMC4 132119Z 29014KT 24/03 A2993 RMK A01 T02410026  RH  024%=      5-min Rain = 0
KMC4 132120Z 29011KT 24/03 A2993 RMK A01 T02410027  RH  025%=      5-min Rain = 0
KMC4 132121Z 30010KT 24/03 A2993 RMK A01 T02410034  RH  026%=      5-min Rain = 0
KMC4 132122Z 30013KT 24/03 A2993 RMK A01 T02430028  RH  025%=      5-min Rain = 0
KMC4 132123Z 29013KT 24/03 A2993 RMK A01 T02430029  RH  025%=      5-min Rain = 0
KMC4 132124Z 29011KT 24/03 A2993 RMK A01 T02430029  RH  025%=      5-min Rain = 0
KMC4 132125Z 29012KT 24/03 A2993 RMK A01 T02420025  RH  024%=      5-min Rain = 0
KMC4 132126Z 29009KT 24/03 A2993 RMK A01 T02420027  RH  025%=      5-min Rain = 0
KMC4 132127Z 29011KT 24/03 A2993 RMK A01 T02420028  RH  025%=      5-min Rain = 0
KMC4 132128Z 29014KT 24/03 A2993 RMK A01 T02420027  RH  025%=      5-min Rain = 0
KMC4 132129Z 30015KT 24/03 A2993 RMK A01 T02420028  RH  025%=      5-min Rain = 0
KMC4 132130Z 29014KT 24/03 A2993 RMK A01 T02410028  RH  025%=      5-min Rain = 0
KMC4 132131Z 28012KT 24/03 A2993 RMK A01 T02420028  RH  025%=      5-min Rain = 0
KMC4 132132Z 28010KT 24/03 A2993 RMK A01 T02420028  RH  025%=      5-min Rain = 0
KMC4 132133Z 28010KT 24/04 A2993 RMK A01 T02410036  RH  026%=      5-min Rain = 0
KMC4 132134Z 28012KT 24/03 A2993 RMK A01 T02410031  RH  025%=      5-min Rain = 0
KMC4 132135Z 28014KT 24/03 A2993 RMK A01 T02410026  RH  024%=      5-min Rain = 0
KMC4 132136Z 28014KT 24/03 A2993 RMK A01 T02410026  RH  025%=      5-min Rain = 0
KMC4 132137Z 28014KT 24/02 A2993 RMK A01 T02410024  RH  024%=      5-min Rain = 0
KMC4 132138Z 28012KT 24/03 A2993 RMK A01 T02400026  RH  025%=      5-min Rain = 0
KMC4 132139Z 29015KT 24/03 A2993 RMK A01 T02400027  RH  025%=      5-min Rain = 0
KMC4 132140Z 29014KT 24/02 A2993 RMK A01 T02400023  RH  024%=      5-min Rain = 0
KMC4 132141Z 29013KT 24/03 A2993 RMK A01 T02400029  RH  025%=      5-min Rain = 0
KMC4 132142Z 30012KT 24/03 A2993 RMK A01 T02400033  RH  026%=      5-min Rain = 0
KMC4 132143Z 29014KT 24/03 A2993 RMK A01 T02400031  RH  026%=      5-min Rain = 0
KMC4 132144Z 30013KT 24/03 A2993 RMK A01 T02400030  RH  025%=      5-min Rain = 0
KMC4 132145Z 30015KT 24/03 A2993 RMK A01 T02400029  RH  025%=      5-min Rain = 0
KMC4 132146Z 30014KT 24/03 A2993 RMK A01 T02390029  RH  025%=      5-min Rain = 0
KMC4 132147Z 28015KT 24/03 A2993 RMK A01 T02390029  RH  025%=      5-min Rain = 0
KMC4 132148Z 30013KT 24/03 A2993 RMK A01 T02390030  RH  026%=      5-min Rain = 0
KMC4 132149Z 29015KT 24/03 A2993 RMK A01 T02380028  RH  025%=      5-min Rain = 0
KMC4 132150Z 28014KT 24/03 A2993 RMK A01 T02380026  RH  025%=      5-min Rain = 0
KMC4 132151Z 29013KT 24/03 A2993 RMK A01 T02380030  RH  026%=      5-min Rain = 0
KMC4 132152Z 28013KT 24/03 A2993 RMK A01 T02370028  RH  025%=      5-min Rain = 0
KMC4 132153Z 28016KT 24/03 A2993 RMK A01 T02370028  RH  026%=      5-min Rain = 0
KMC4 132154Z 29016KT 24/02 A2993 RMK A01 T02370024  RH  025%=      5-min Rain = 0
KMC4 132155Z 29012KT 24/02 A2993 RMK A01 T02370024  RH  025%=      5-min Rain = 0
KMC4 132156Z 29012KT 24/03 A2993 RMK A01 T02370026  RH  025%=      5-min Rain = 0
KMC4 132157Z 29009KT 24/03 A2992 RMK A01 T02360029  RH  026%=      5-min Rain = 0
KMC4 132158Z 30008KT 24/03 A2992 RMK A01 T02360034  RH  027%=      5-min Rain = 0
KMC4 132159Z 30010KT 24/03 A2992 RMK A01 T02350033  RH  027%=      5-min Rain = 0
KMC4 132200Z 30010KT 24/03 A2992 RMK A01 T02350030  RH  026%=      5-min Rain = 0
KMC4 132201Z 30010KT 24/03 A2992 RMK A01 T02360032  RH  026%=      5-min Rain = 0
KMC4 132202Z 29009G14KT 24/03 A2992 RMK A01 T02360033  RH  027%=      5-min Rain = 0
KMC4 132203Z 29012KT 24/03 A2992 RMK A01 T02360030  RH  026%=      5-min Rain = 0
KMC4 132204Z 29011KT 24/03 A2993 RMK A01 T02350032  RH  027%=      5-min Rain = 0
KMC4 132205Z 30009KT 24/03 A2993 RMK A01 T02350031  RH  026%=      5-min Rain = 0
KMC4 132206Z 29012KT 24/03 A2993 RMK A01 T02350031  RH  026%=      5-min Rain = 0
KMC4 132207Z 29013KT 24/03 A2993 RMK A01 T02360026  RH  025%=      5-min Rain = 0
KMC4 132208Z 29016KT 24/03 A2992 RMK A01 T02370027  RH  025%=      5-min Rain = 0
KMC4 132209Z 29013KT 24/03 A2992 RMK A01 T02380027  RH  025%=      5-min Rain = 0
KMC4 132210Z 29012KT 24/03 A2992 RMK A01 T02390030  RH  026%=      5-min Rain = 0
KMC4 132211Z 29012KT 24/03 A2992 RMK A01 T02380028  RH  025%=      5-min Rain = 0
KMC4 132212Z 30011KT 24/03 A2992 RMK A01 T02380031  RH  026%=      5-min Rain = 0
KMC4 132213Z 30011KT 24/03 A2992 RMK A01 T02380030  RH  026%=      5-min Rain = 0
KMC4 132214Z 30010KT 24/03 A2992 RMK A01 T02380031  RH  026%=      5-min Rain = 0
KMC4 132215Z 30012KT 24/03 A2992 RMK A01 T02390033  RH  026%=      5-min Rain = 0
KMC4 132216Z 29012KT 24/03 A2992 RMK A01 T02390030  RH  026%=      5-min Rain = 0
KMC4 132217Z 29011KT 24/03 A2992 RMK A01 T02390026  RH  025%=      5-min Rain = 0
KMC4 132218Z 30011KT 24/03 A2992 RMK A01 T02390029  RH  025%=      5-min Rain = 0
KMC4 132219Z 30011KT 24/03 A2992 RMK A01 T02390028  RH  025%=      5-min Rain = 0
KMC4 132220Z 30010KT 24/03 A2992 RMK A01 T02390031  RH  026%=      5-min Rain = 0
KMC4 132221Z 30010KT 24/03 A2992 RMK A01 T02390033  RH  026%=      5-min Rain = 0
KMC4 132222Z 30011KT 24/03 A2992 RMK A01 T02390034  RH  026%=      5-min Rain = 0
KMC4 132223Z 30012KT 24/03 A2992 RMK A01 T02390028  RH  025%=      5-min Rain = 0
KMC4 132224Z 30012KT 24/03 A2992 RMK A01 T02390029  RH  025%=      5-min Rain = 0
KMC4 132225Z 30010KT 24/03 A2992 RMK A01 T02390028  RH  025%=      5-min Rain = 0
KMC4 132226Z 29008KT 24/03 A2992 RMK A01 T02390033  RH  026%=      5-min Rain = 0
KMC4 132227Z 29009KT 24/04 A2992 RMK A01 T02390036  RH  027%=      5-min Rain = 0
KMC4 132228Z 29010KT 24/03 A2992 RMK A01 T02390027  RH  025%=      5-min Rain = 0
KMC4 132229Z 29009KT 24/03 A2992 RMK A01 T02400031  RH  026%=      5-min Rain = 0
KMC4 132230Z 29009KT 24/03 A2992 RMK A01 T02400034  RH  026%=      5-min Rain = 0
KMC4 132231Z 28010KT 24/03 A2992 RMK A01 T02390029  RH  025%=      5-min Rain = 0
KMC4 132232Z 28008KT 24/04 A2992 RMK A01 T02400037  RH  027%=      5-min Rain = 0
KMC4 132233Z 28011KT 24/03 A2992 RMK A01 T02390032  RH  026%=      5-min Rain = 0
KMC4 132234Z 28013KT 24/03 A2992 RMK A01 T02390025  RH  025%=      5-min Rain = 0
KMC4 132235Z 28012KT 24/02 A2992 RMK A01 T02390023  RH  024%=      5-min Rain = 0
KMC4 132236Z 28012KT 24/03 A2992 RMK A01 T02400027  RH  025%=      5-min Rain = 0
KMC4 132237Z 28011KT 24/02 A2992 RMK A01 T02400024  RH  024%=      5-min Rain = 0
KMC4 132238Z 29010KT 24/03 A2992 RMK A01 T02400027  RH  025%=      5-min Rain = 0
KMC4 132239Z 29010KT 24/03 A2992 RMK A01 T02400027  RH  025%=      5-min Rain = 0
KMC4 132240Z 28010KT 24/03 A2992 RMK A01 T02400026  RH  025%=      5-min Rain = 0
KMC4 132241Z 28010G15KT 24/03 A2992 RMK A01 T02400030  RH  025%=      5-min Rain = 0
KMC4 132242Z 28014KT 24/03 A2992 RMK A01 T02400026  RH  025%=      5-min Rain = 0
KMC4 132243Z 29015KT 24/02 A2992 RMK A01 T02400021  RH  024%=      5-min Rain = 0
KMC4 132244Z 29013KT 24/02 A2992 RMK A01 T02400024  RH  024%=      5-min Rain = 0
KMC4 132245Z 28011KT 24/03 A2992 RMK A01 T02400027  RH  025%=      5-min Rain = 0
KMC4 132246Z 28011KT 24/03 A2992 RMK A01 T02400027  RH  025%=      5-min Rain = 0
KMC4 132247Z 28012KT 24/03 A2992 RMK A01 T02400029  RH  025%=      5-min Rain = 0
KMC4 132248Z 28011KT 24/03 A2992 RMK A01 T02400029  RH  025%=      5-min Rain = 0
KMC4 132249Z 28011KT 24/03 A2992 RMK A01 T02390033  RH  026%=      5-min Rain = 0
KMC4 132250Z 29013KT 24/03 A2992 RMK A01 T02390030  RH  026%=      5-min Rain = 0
KMC4 132251Z 28013KT 24/03 A2992 RMK A01 T02390028  RH  025%=      5-min Rain = 0
KMC4 132252Z 28014KT 24/03 A2992 RMK A01 T02390025  RH  025%=      5-min Rain = 0
KMC4 132253Z 29010KT 24/03 A2992 RMK A01 T02390030  RH  026%=      5-min Rain = 0
KMC4 132254Z 28010KT 24/03 A2992 RMK A01 T02390033  RH  026%=      5-min Rain = 0
KMC4 132255Z 28010KT 24/03 A2992 RMK A01 T02380033  RH  026%=      5-min Rain = 0
KMC4 132256Z 29012KT 24/03 A2992 RMK A01 T02380032  RH  026%=      5-min Rain = 0
KMC4 132257Z 29010KT 24/03 A2993 RMK A01 T02380030  RH  026%=      5-min Rain = 0
KMC4 132258Z 29009KT 24/03 A2993 RMK A01 T02380032  RH  026%=      5-min Rain = 0
KMC4 132259Z 28009KT 24/04 A2992 RMK A01 T02380037  RH  027%=      5-min Rain = 0
KMC4 132300Z 28011KT 24/04 A2992 RMK A01 T02380038  RH  027%=      5-min Rain = 0
KMC4 132301Z 28011KT 24/04 A2992 RMK A01 T02370037  RH  027%=      5-min Rain = 0
KMC4 132302Z 28012KT 24/04 A2992 RMK A01 T02370038  RH  027%=      5-min Rain = 0
KMC4 132303Z 28011KT 24/04 A2992 RMK A01 T02360036  RH  027%=      5-min Rain = 0
KMC4 132304Z 28010KT 24/04 A2992 RMK A01 T02370039  RH  028%=      5-min Rain = 0
KMC4 132305Z 28011KT 24/04 A2992 RMK A01 T02350039  RH  028%=      5-min Rain = 0
KMC4 132306Z 28010KT 24/04 A2992 RMK A01 T02350040  RH  028%=      5-min Rain = 0
KMC4 132307Z 27011KT 23/04 A2993 RMK A01 T02340042  RH  029%=      5-min Rain = 0
KMC4 132308Z 28010KT 23/04 A2993 RMK A01 T02330039  RH  028%=      5-min Rain = 0
KMC4 132309Z 28010KT 23/04 A2993 RMK A01 T02330042  RH  029%=      5-min Rain = 0
KMC4 132310Z 28010KT 23/04 A2992 RMK A01 T02320043  RH  029%=      5-min Rain = 0
KMC4 132311Z 28010KT 23/04 A2992 RMK A01 T02310040  RH  029%=      5-min Rain = 0
KMC4 132312Z 28009KT 23/04 A2992 RMK A01 T02310044  RH  030%=      5-min Rain = 0
KMC4 132313Z 28009KT 23/05 A2992 RMK A01 T02300046  RH  030%=      5-min Rain = 0
KMC4 132314Z 28010KT 23/04 A2992 RMK A01 T02300042  RH  029%=      5-min Rain = 0
KMC4 132315Z 28009KT 23/04 A2992 RMK A01 T02300040  RH  029%=      5-min Rain = 0
KMC4 132316Z 28009KT 23/04 A2992 RMK A01 T02300043  RH  030%=      5-min Rain = 0
KMC4 132317Z 28008KT 23/05 A2992 RMK A01 T02290046  RH  030%=      5-min Rain = 0
KMC4 132318Z 28009KT 23/05 A2992 RMK A01 T02280046  RH  030%=      5-min Rain = 0
KMC4 132319Z 29009KT 23/05 A2992 RMK A01 T02270045  RH  031%=      5-min Rain = 0
KMC4 132320Z 28010KT 23/04 A2992 RMK A01 T02270043  RH  030%=      5-min Rain = 0
KMC4 132321Z 28009KT 23/04 A2992 RMK A01 T02270042  RH  030%=      5-min Rain = 0
KMC4 132322Z 29009KT 23/04 A2993 RMK A01 T02270044  RH  030%=      5-min Rain = 0
KMC4 132323Z 29008KT 23/04 A2993 RMK A01 T02270044  RH  030%=      5-min Rain = 0
KMC4 132324Z 29010KT 23/04 A2993 RMK A01 T02250042  RH  030%=      5-min Rain = 0
KMC4 132325Z 29008KT 23/04 A2993 RMK A01 T02250041  RH  030%=      5-min Rain = 0
KMC4 132326Z 29008KT 23/04 A2993 RMK A01 T02250041  RH  030%=      5-min Rain = 0
KMC4 132327Z 29009KT 22/04 A2993 RMK A01 T02240041  RH  030%=      5-min Rain = 0
KMC4 132328Z 30008KT 22/04 A2993 RMK A01 T02230040  RH  030%=      5-min Rain = 0
KMC4 132329Z 30008KT 22/04 A2993 RMK A01 T02220042  RH  031%=      5-min Rain = 0
KMC4 132330Z 29009KT 22/04 A2993 RMK A01 T02210041  RH  031%=      5-min Rain = 0
KMC4 132331Z 30008KT 22/04 A2993 RMK A01 T02210041  RH  031%=      5-min Rain = 0
KMC4 132332Z 30007KT 22/04 A2993 RMK A01 T02210042  RH  031%=      5-min Rain = 0
KMC4 132333Z 30006KT 22/05 A2993 RMK A01 T02200045  RH  032%=      5-min Rain = 0
KMC4 132334Z 30007KT 22/05 A2993 RMK A01 T02180046  RH  033%=      5-min Rain = 0
KMC4 132335Z 30007KT 22/04 A2993 RMK A01 T02170044  RH  032%=      5-min Rain = 0
KMC4 132336Z 29007KT 22/05 A2993 RMK A01 T02170046  RH  033%=      5-min Rain = 0
KMC4 132337Z 29007KT 22/05 A2993 RMK A01 T02150046  RH  033%=      5-min Rain = 0
KMC4 132338Z 29007KT 22/04 A2993 RMK A01 T02150044  RH  033%=      5-min Rain = 0
KMC4 132339Z 29008KT 21/05 A2993 RMK A01 T02140045  RH  033%=      5-min Rain = 0
KMC4 132340Z 29008KT 21/04 A2993 RMK A01 T02140044  RH  033%=      5-min Rain = 0
KMC4 132341Z 29008KT 21/04 A2994 RMK A01 T02140044  RH  033%=      5-min Rain = 0
KMC4 132342Z 29008KT 21/05 A2994 RMK A01 T02130045  RH  033%=      5-min Rain = 0
KMC4 132343Z 29008KT 21/05 A2994 RMK A01 T02120045  RH  033%=      5-min Rain = 0
KMC4 132344Z 29008KT 21/05 A2993 RMK A01 T02110045  RH  034%=      5-min Rain = 0
KMC4 132345Z 29008KT 21/04 A2993 RMK A01 T02100044  RH  034%=      5-min Rain = 0
KMC4 132346Z 29007KT 21/05 A2993 RMK A01 T02090045  RH  034%=      5-min Rain = 0
KMC4 132347Z 29008KT 21/05 A2993 RMK A01 T02080045  RH  034%=      5-min Rain = 0
KMC4 132348Z 29007KT 21/05 A2993 RMK A01 T02070045  RH  034%=      5-min Rain = 0
KMC4 132349Z 29007KT 21/04 A2993 RMK A01 T02060044  RH  035%=      5-min Rain = 0
KMC4 132350Z 29007KT 21/05 A2993 RMK A01 T02060045  RH  035%=      5-min Rain = 0
KMC4 132351Z 30008KT 21/04 A2993 RMK A01 T02050044  RH  035%=      5-min Rain = 0
KMC4 132352Z 29007KT 21/05 A2993 RMK A01 T02050045  RH  035%=      5-min Rain = 0
KMC4 132353Z 29008KT 20/05 A2994 RMK A01 T02040046  RH  035%=      5-min Rain = 0
KMC4 132354Z 29007KT 20/05 A2993 RMK A01 T02030046  RH  036%=      5-min Rain = 0
KMC4 132355Z 29007KT 20/05 A2993 RMK A01 T02020046  RH  036%=      5-min Rain = 0
KMC4 132356Z 29007KT 20/05 A2993 RMK A01 T02010046  RH  036%=      5-min Rain = 0
KMC4 132357Z 29008KT 20/05 A2993 RMK A01 T02000047  RH  036%=      5-min Rain = 0
KMC4 132358Z 29007KT 20/05 A2993 RMK A01 T01990048  RH  037%=      5-min Rain = 0
KMC4 132359Z 29007KT 20/05 A2993 RMK A01 T01980049  RH  037%=      5-min Rain = 0
KMC4 140000Z 30008KT 20/05 A2993 RMK A01 T01970047  RH  037%=      5-min Rain = 0
KMC4 140001Z 29007KT 20/05 A2993 RMK A01 T01960050  RH  038%=      5-min Rain = 0
KMC4 140002Z 30007KT 20/05 A2993 RMK A01 T01950049  RH  038%=      5-min Rain = 0
KMC4 140003Z 29007KT 19/05 A2993 RMK A01 T01940050  RH  039%=      5-min Rain = 0
KMC4 140004Z 29008KT 19/05 A2993 RMK A01 T01940049  RH  038%=      5-min Rain = 0
KMC4 140005Z 29008KT 19/05 A2993 RMK A01 T01940047  RH  038%=      5-min Rain = 0
KMC4 140006Z 29008KT 20/05 A2993 RMK A01 T01950046  RH  038%=      5-min Rain = 0
KMC4 140007Z 28007KT 20/05 A2993 RMK A01 T01950047  RH  038%=      5-min Rain = 0
KMC4 140008Z 28007KT 19/05 A2993 RMK A01 T01940051  RH  039%=      5-min Rain = 0
KMC4 140009Z 28008KT 19/05 A2993 RMK A01 T01920051  RH  039%=      5-min Rain = 0
KMC4 140010Z 27007KT 19/05 A2993 RMK A01 T01900053  RH  041%=      5-min Rain = 0
KMC4 140011Z 27007KT 19/06 A2993 RMK A01 T01880056  RH  042%=      5-min Rain = 0
KMC4 140012Z 27007KT 19/06 A2993 RMK A01 T01850057  RH  043%=      5-min Rain = 0
KMC4 140013Z 27006KT 18/06 A2993 RMK A01 T01820058  RH  044%=      5-min Rain = 0
KMC4 140014Z 27006KT 18/06 A2993 RMK A01 T01790057  RH  045%=      5-min Rain = 0
KMC4 140015Z 27007KT 18/06 A2993 RMK A01 T01780058  RH  045%=      5-min Rain = 0
KMC4 140016Z 27007KT 18/06 A2993 RMK A01 T01760058  RH  046%=      5-min Rain = 0
KMC4 140017Z 27007KT 18/06 A2993 RMK A01 T01760057  RH  046%=      5-min Rain = 0
KMC4 140018Z 27006KT 18/06 A2993 RMK A01 T01750058  RH  046%=      5-min Rain = 0
KMC4 140019Z 27006KT 17/06 A2993 RMK A01 T01740058  RH  047%=      5-min Rain = 0
KMC4 140020Z 27006KT 17/06 A2993 RMK A01 T01720059  RH  047%=      5-min Rain = 0
KMC4 140021Z 27006KT 17/06 A2993 RMK A01 T01710059  RH  048%=      5-min Rain = 0
KMC4 140022Z 27005KT 17/06 A2993 RMK A01 T01700061  RH  049%=      5-min Rain = 0
KMC4 140023Z 27006KT 17/06 A2993 RMK A01 T01680060  RH  049%=      5-min Rain = 0
KMC4 140024Z 27006KT 17/06 A2993 RMK A01 T01670059  RH  049%=      5-min Rain = 0
KMC4 140025Z 27006KT 17/06 A2993 RMK A01 T01670060  RH  049%=      5-min Rain = 0
KMC4 140026Z 28006KT 17/06 A2993 RMK A01 T01660060  RH  049%=      5-min Rain = 0
KMC4 140027Z 28006KT 17/06 A2993 RMK A01 T01660060  RH  050%=      5-min Rain = 0
KMC4 140028Z 28006KT 17/06 A2994 RMK A01 T01650057  RH  049%=      5-min Rain = 0
KMC4 140029Z 28006KT 17/06 A2994 RMK A01 T01650055  RH  048%=      5-min Rain = 0
KMC4 140030Z 28006KT 17/06 A2994 RMK A01 T01650055  RH  048%=      5-min Rain = 0
KMC4 140031Z 28006KT 17/06 A2994 RMK A01 T01650055  RH  048%=      5-min Rain = 0
KMC4 140032Z 28006KT 17/05 A2994 RMK A01 T01660054  RH  048%=      5-min Rain = 0
KMC4 140033Z 29006KT 17/05 A2994 RMK A01 T01660053  RH  047%=      5-min Rain = 0
KMC4 140034Z 28005KT 17/05 A2994 RMK A01 T01670054  RH  047%=      5-min Rain = 0
KMC4 140035Z 28005KT 17/05 A2994 RMK A01 T01670053  RH  047%=      5-min Rain = 0
KMC4 140036Z 28005KT 17/05 A2994 RMK A01 T01660054  RH  048%=      5-min Rain = 0
KMC4 140037Z 29005KT 17/06 A2994 RMK A01 T01660056  RH  048%=      5-min Rain = 0
KMC4 140038Z 29005KT 16/06 A2994 RMK A01 T01640055  RH  049%=      5-min Rain = 0
KMC4 140039Z 29005KT 16/05 A2994 RMK A01 T01630054  RH  048%=      5-min Rain = 0
KMC4 140040Z 30005KT 16/06 A2994 RMK A01 T01630055  RH  049%=      5-min Rain = 0
KMC4 140041Z 30005KT 16/05 A2994 RMK A01 T01620054  RH  049%=      5-min Rain = 0
KMC4 140042Z 31005KT 16/06 A2994 RMK A01 T01620057  RH  050%=      5-min Rain = 0
KMC4 140043Z 31005KT 16/06 A2994 RMK A01 T01610060  RH  051%=      5-min Rain = 0
KMC4 140044Z 31006KT 16/06 A2994 RMK A01 T01590058  RH  051%=      5-min Rain = 0
KMC4 140045Z 31006KT 16/06 A2994 RMK A01 T01590057  RH  051%=      5-min Rain = 0
KMC4 140046Z 31006KT 16/06 A2994 RMK A01 T01580058  RH  051%=      5-min Rain = 0
KMC4 140047Z 30006KT 16/06 A2994 RMK A01 T01580057  RH  051%=      5-min Rain = 0
KMC4 140048Z 30006KT 16/06 A2994 RMK A01 T01580056  RH  051%=      5-min Rain = 0
KMC4 140049Z 31006KT 16/06 A2994 RMK A01 T01580056  RH  051%=      5-min Rain = 0
KMC4 140050Z 31006KT 16/06 A2995 RMK A01 T01580057  RH  051%=      5-min Rain = 0
KMC4 140051Z 30006KT 16/06 A2995 RMK A01 T01580055  RH  050%=      5-min Rain = 0
KMC4 140052Z 30005KT 16/06 A2995 RMK A01 T01580055  RH  050%=      5-min Rain = 0
KMC4 140053Z 29004KT 16/06 A2995 RMK A01 T01560059  RH  052%=      5-min Rain = 0
KMC4 140054Z 28003KT 15/06 A2995 RMK A01 T01530061  RH  054%=      5-min Rain = 0
KMC4 140055Z 26003KT 15/06 A2995 RMK A01 T01480062  RH  056%=      5-min Rain = 0
KMC4 140056Z 27004KT 15/06 A2995 RMK A01 T01450061  RH  057%=      5-min Rain = 0
KMC4 140057Z 28004KT 14/06 A2995 RMK A01 T01420060  RH  058%=      5-min Rain = 0
KMC4 140058Z 29005KT 14/06 A2995 RMK A01 T01410062  RH  059%=      5-min Rain = 0
KMC4 140059Z 29006KT 14/06 A2995 RMK A01 T01390063  RH  060%=      5-min Rain = 0
KMC4 140100Z 30005KT 14/06 A2995 RMK A01 T01380060  RH  059%=      5-min Rain = 0
KMC4 140101Z 30005KT 14/06 A2995 RMK A01 T01380062  RH  060%=      5-min Rain = 0
KMC4 140102Z 30005KT 14/06 A2995 RMK A01 T01380064  RH  061%=      5-min Rain = 0
KMC4 140103Z 30005KT 14/06 A2995 RMK A01 T01380063  RH  060%=      5-min Rain = 0
KMC4 140104Z 29005KT 14/06 A2995 RMK A01 T01390058  RH  058%=      5-min Rain = 0
KMC4 140105Z 30006KT 14/06 A2995 RMK A01 T01420057  RH  056%=      5-min Rain = 0
KMC4 140106Z 30006KT 15/06 A2995 RMK A01 T01450056  RH  055%=      5-min Rain = 0
KMC4 140107Z 30006KT 15/05 A2995 RMK A01 T01470054  RH  054%=      5-min Rain = 0
KMC4 140108Z 30006KT 15/05 A2995 RMK A01 T01510052  RH  052%=      5-min Rain = 0
KMC4 140109Z 31005KT 15/05 A2995 RMK A01 T01530053  RH  051%=      5-min Rain = 0
KMC4 140110Z 31006KT 15/06 A2995 RMK A01 T01530055  RH  052%=      5-min Rain = 0
KMC4 140111Z 31006KT 15/05 A2995 RMK A01 T01530053  RH  051%=      5-min Rain = 0
KMC4 140112Z 31006KT 15/05 A2995 RMK A01 T01540054  RH  051%=      5-min Rain = 0
KMC4 140113Z 31005KT 15/05 A2995 RMK A01 T01530054  RH  051%=      5-min Rain = 0
KMC4 140114Z 31005KT 15/05 A2995 RMK A01 T01530053  RH  051%=      5-min Rain = 0
KMC4 140115Z 31006KT 15/05 A2995 RMK A01 T01520054  RH  052%=      5-min Rain = 0
KMC4 140116Z 31006KT 15/05 A2995 RMK A01 T01520053  RH  052%=      5-min Rain = 0
KMC4 140117Z 31006KT 15/05 A2995 RMK A01 T01530051  RH  051%=      5-min Rain = 0
KMC4 140118Z 31006KT 15/05 A2995 RMK A01 T01530051  RH  051%=      5-min Rain = 0
KMC4 140119Z 30006KT 15/05 A2994 RMK A01 T01540051  RH  050%=      5-min Rain = 0
KMC4 140120Z 30006KT 16/05 A2994 RMK A01 T01550049  RH  049%=      5-min Rain = 0
KMC4 140121Z 30005KT 16/05 A2994 RMK A01 T01580047  RH  048%=      5-min Rain = 0
KMC4 140122Z 30006KT 16/05 A2994 RMK A01 T01600048  RH  048%=      5-min Rain = 0
KMC4 140123Z 30006KT 16/05 A2994 RMK A01 T01610048  RH  047%=      5-min Rain = 0
KMC4 140124Z 30005KT 16/05 A2994 RMK A01 T01610048  RH  047%=      5-min Rain = 0
KMC4 140125Z 29005KT 16/05 A2994 RMK A01 T01610050  RH  047%=      5-min Rain = 0
KMC4 140126Z 29005KT 16/05 A2994 RMK A01 T01600050  RH  048%=      5-min Rain = 0
KMC4 140127Z 29004KT 16/05 A2994 RMK A01 T01570051  RH  049%=      5-min Rain = 0
KMC4 140128Z 28004KT 16/05 A2994 RMK A01 T01550054  RH  051%=      5-min Rain = 0
KMC4 140129Z 28004KT 15/06 A2995 RMK A01 T01510055  RH  053%=      5-min Rain = 0
KMC4 140130Z 29005KT 15/06 A2995 RMK A01 T01480055  RH  054%=      5-min Rain = 0
KMC4 140131Z 29005KT 15/06 A2995 RMK A01 T01460056  RH  055%=      5-min Rain = 0
KMC4 140132Z 29005KT 15/06 A2995 RMK A01 T01450055  RH  055%=      5-min Rain = 0
KMC4 140133Z 29005KT 15/05 A2995 RMK A01 T01450054  RH  054%=      5-min Rain = 0
KMC4 140134Z 30005KT 15/05 A2995 RMK A01 T01450051  RH  053%=      5-min Rain = 0
KMC4 140135Z 30005KT 15/05 A2995 RMK A01 T01450050  RH  053%=      5-min Rain = 0
KMC4 140136Z 31004KT 15/05 A2995 RMK A01 T01460051  RH  053%=      5-min Rain = 0
KMC4 140137Z 32004KT 15/05 A2995 RMK A01 T01460052  RH  053%=      5-min Rain = 0
KMC4 140138Z 32004KT 15/05 A2995 RMK A01 T01460051  RH  053%=      5-min Rain = 0
KMC4 140139Z 32004KT 15/05 A2995 RMK A01 T01460050  RH  053%=      5-min Rain = 0
KMC4 140140Z 32004KT 15/05 A2995 RMK A01 T01470049  RH  052%=      5-min Rain = 0
KMC4 140141Z 32004KT 15/05 A2995 RMK A01 T01470049  RH  052%=      5-min Rain = 0
KMC4 140142Z 31004KT 15/05 A2995 RMK A01 T01470049  RH  052%=      5-min Rain = 0
KMC4 140143Z 31004KT 15/05 A2995 RMK A01 T01470051  RH  052%=      5-min Rain = 0
KMC4 140144Z 31005KT 15/05 A2995 RMK A01 T01470052  RH  053%=      5-min Rain = 0
KMC4 140145Z 31005KT 15/05 A2995 RMK A01 T01470052  RH  053%=      5-min Rain = 0
KMC4 140146Z 30005KT 15/05 A2995 RMK A01 T01470052  RH  053%=      5-min Rain = 0
KMC4 140147Z 30006KT 15/05 A2995 RMK A01 T01470049  RH  052%=      5-min Rain = 0
KMC4 140148Z 30006KT 15/05 A2995 RMK A01 T01480049  RH  051%=      5-min Rain = 0
KMC4 140149Z 30006KT 15/05 A2995 RMK A01 T01490049  RH  051%=      5-min Rain = 0
KMC4 140150Z 30006KT 15/05 A2995 RMK A01 T01510049  RH  051%=      5-min Rain = 0
KMC4 140151Z 30005KT 15/06 A2995 RMK A01 T01500055  RH  053%=      5-min Rain = 0
KMC4 140152Z 30005KT 15/05 A2995 RMK A01 T01480054  RH  053%=      5-min Rain = 0
KMC4 140153Z 30006KT 15/05 A2995 RMK A01 T01460052  RH  053%=      5-min Rain = 0
KMC4 140154Z 30006KT 15/05 A2995 RMK A01 T01450050  RH  053%=      5-min Rain = 0
KMC4 140155Z 30006KT 15/05 A2995 RMK A01 T01450050  RH  053%=      5-min Rain = 0
KMC4 140156Z 30006KT 15/05 A2995 RMK A01 T01460049  RH  052%=      5-min Rain = 0
KMC4 140157Z 29006KT 15/05 A2996 RMK A01 T01450049  RH  052%=      5-min Rain = 0
KMC4 140158Z 29006KT 15/05 A2996 RMK A01 T01450049  RH  052%=      5-min Rain = 0
KMC4 140159Z 29006KT 14/05 A2996 RMK A01 T01440049  RH  053%=      5-min Rain = 0
KMC4 140200Z 29006KT 14/05 A2996 RMK A01 T01430049  RH  053%=      5-min Rain = 0
KMC4 140201Z 29006KT 14/05 A2996 RMK A01 T01420049  RH  054%=      5-min Rain = 0
KMC4 140202Z 29006KT 14/05 A2996 RMK A01 T01410050  RH  054%=      5-min Rain = 0
KMC4 140203Z 29006KT 14/05 A2996 RMK A01 T01390050  RH  055%=      5-min Rain = 0
KMC4 140204Z 29006KT 14/05 A2996 RMK A01 T01380049  RH  055%=      5-min Rain = 0
KMC4 140205Z 29006KT 14/05 A2996 RMK A01 T01390050  RH  055%=      5-min Rain = 0
KMC4 140206Z 29006KT 14/05 A2996 RMK A01 T01390050  RH  055%=      5-min Rain = 0
KMC4 140207Z 29006KT 14/05 A2996 RMK A01 T01380051  RH  055%=      5-min Rain = 0
KMC4 140208Z 29007KT 14/05 A2996 RMK A01 T01380051  RH  056%=      5-min Rain = 0
KMC4 140209Z 29007KT 14/05 A2996 RMK A01 T01370051  RH  056%=      5-min Rain = 0
KMC4 140210Z 29006KT 14/05 A2996 RMK A01 T01370052  RH  056%=      5-min Rain = 0
KMC4 140211Z 29006KT 14/05 A2996 RMK A01 T01370053  RH  057%=      5-min Rain = 0
KMC4 140212Z 30006KT 14/05 A2996 RMK A01 T01370053  RH  057%=      5-min Rain = 0
KMC4 140213Z 30005KT 14/05 A2996 RMK A01 T01370053  RH  057%=      5-min Rain = 0
KMC4 140214Z 31005KT 14/05 A2996 RMK A01 T01360054  RH  057%=      5-min Rain = 0
KMC4 140215Z 31005KT 14/05 A2996 RMK A01 T01360053  RH  057%=      5-min Rain = 0
KMC4 140216Z 31005KT 14/05 A2996 RMK A01 T01350053  RH  058%=      5-min Rain = 0
KMC4 140217Z 31005KT 14/05 A2996 RMK A01 T01350053  RH  058%=      5-min Rain = 0
KMC4 140218Z 31004KT 13/05 A2996 RMK A01 T01340053  RH  058%=      5-min Rain = 0
KMC4 140219Z 31004KT 13/05 A2996 RMK A01 T01340053  RH  058%=      5-min Rain = 0
KMC4 140220Z 31004KT 13/05 A2996 RMK A01 T01340051  RH  057%=      5-min Rain = 0
KMC4 140221Z 31004KT 14/05 A2996 RMK A01 T01350051  RH  057%=      5-min Rain = 0
KMC4 140222Z 31004KT 14/05 A2996 RMK A01 T01350051  RH  057%=      5-min Rain = 0
KMC4 140223Z 31004KT 14/05 A2996 RMK A01 T01350051  RH  057%=      5-min Rain = 0
KMC4 140224Z 31003KT 14/05 A2996 RMK A01 T01350052  RH  057%=      5-min Rain = 0
KMC4 140225Z 31003KT 14/05 A2996 RMK A01 T01350054  RH  058%=      5-min Rain = 0
KMC4 140226Z 31004KT 13/06 A2996 RMK A01 T01330055  RH  059%=      5-min Rain = 0
KMC4 140227Z 30004KT 13/05 A2996 RMK A01 T01320052  RH  058%=      5-min Rain = 0
KMC4 140228Z 29004KT 13/05 A2996 RMK A01 T01320050  RH  058%=      5-min Rain = 0
KMC4 140229Z 29004KT 13/05 A2996 RMK A01 T01320049  RH  057%=      5-min Rain = 0
KMC4 140230Z 29005KT 13/05 A2996 RMK A01 T01310049  RH  057%=      5-min Rain = 0
KMC4 140231Z 29005KT 13/05 A2996 RMK A01 T01300051  RH  059%=      5-min Rain = 0
KMC4 140232Z 29005KT 13/05 A2996 RMK A01 T01280051  RH  059%=      5-min Rain = 0
KMC4 140233Z 29004KT 13/05 A2996 RMK A01 T01270052  RH  061%=      5-min Rain = 0
KMC4 140234Z 28004KT 13/06 A2996 RMK A01 T01250057  RH  063%=      5-min Rain = 0
KMC4 140235Z 28004KT 12/06 A2996 RMK A01 T01230056  RH  063%=      5-min Rain = 0
KMC4 140236Z 27004KT 12/06 A2996 RMK A01 T01220056  RH  064%=      5-min Rain = 0
KMC4 140237Z 27004KT 12/06 A2996 RMK A01 T01210059  RH  066%=      5-min Rain = 0
KMC4 140238Z 27003KT 12/06 A2996 RMK A01 T01180058  RH  066%=      5-min Rain = 0
KMC4 140239Z 28003KT 12/06 A2996 RMK A01 T01160058  RH  067%=      5-min Rain = 0
KMC4 140240Z 28003KT 11/06 A2996 RMK A01 T01140057  RH  068%=      5-min Rain = 0
KMC4 140241Z 27003KT 11/06 A2996 RMK A01 T01140059  RH  069%=      5-min Rain = 0
KMC4 140242Z 27003KT 11/06 A2996 RMK A01 T01130059  RH  070%=      5-min Rain = 0
KMC4 140243Z 27003KT 11/06 A2996 RMK A01 T01120059  RH  070%=      5-min Rain = 0
KMC4 140244Z 28004KT 11/06 A2997 RMK A01 T01110058  RH  070%=      5-min Rain = 0
KMC4 140245Z 28003KT 11/06 A2997 RMK A01 T01110058  RH  070%=      5-min Rain = 0
KMC4 140246Z 28003KT 11/06 A2997 RMK A01 T01100058  RH  070%=      5-min Rain = 0
KMC4 140247Z 27004KT 11/06 A2997 RMK A01 T01100058  RH  070%=      5-min Rain = 0
KMC4 140248Z 28004KT 11/06 A2997 RMK A01 T01110058  RH  070%=      5-min Rain = 0
KMC4 140249Z 28003KT 11/06 A2997 RMK A01 T01110057  RH  069%=      5-min Rain = 0
KMC4 140250Z 27003KT 11/06 A2997 RMK A01 T01110056  RH  069%=      5-min Rain = 0
KMC4 140251Z 27003KT 11/06 A2997 RMK A01 T01120055  RH  068%=      5-min Rain = 0
KMC4 140252Z 27003KT 11/05 A2997 RMK A01 T01120054  RH  068%=      5-min Rain = 0
KMC4 140253Z 25003KT 11/06 A2997 RMK A01 T01130055  RH  068%=      5-min Rain = 0
KMC4 140254Z 25003KT 11/06 A2997 RMK A01 T01130055  RH  068%=      5-min Rain = 0
KMC4 140255Z 26002KT 11/06 A2997 RMK A01 T01130055  RH  067%=      5-min Rain = 0
KMC4 140256Z 26002KT 11/06 A2997 RMK A01 T01130055  RH  067%=      5-min Rain = 0
KMC4 140257Z 26002KT 11/06 A2997 RMK A01 T01130055  RH  068%=      5-min Rain = 0
KMC4 140258Z 27002KT 11/06 A2997 RMK A01 T01120055  RH  068%=      5-min Rain = 0
KMC4 140259Z 27001KT 11/06 A2997 RMK A01 T01120055  RH  068%=      5-min Rain = 0
KMC4 140300Z 28001KT 11/06 A2997 RMK A01 T01120055  RH  068%=      5-min Rain = 0
KMC4 140301Z 29001KT 11/06 A2997 RMK A01 T01120056  RH  068%=      5-min Rain = 0
KMC4 140302Z 31001KT 11/06 A2997 RMK A01 T01130057  RH  069%=      5-min Rain = 0
KMC4 140303Z 33001KT 11/06 A2997 RMK A01 T01130059  RH  069%=      5-min Rain = 0
KMC4 140304Z 34002KT 11/06 A2997 RMK A01 T01130058  RH  069%=      5-min Rain = 0
KMC4 140305Z 33002KT 11/06 A2997 RMK A01 T01130055  RH  068%=      5-min Rain = 0
KMC4 140306Z 34002KT 11/05 A2997 RMK A01 T01140054  RH  066%=      5-min Rain = 0
KMC4 140307Z 34002KT 12/05 A2997 RMK A01 T01150054  RH  066%=      5-min Rain = 0
KMC4 140308Z 34003KT 12/05 A2997 RMK A01 T01160053  RH  065%=      5-min Rain = 0
KMC4 140309Z 34003KT 12/05 A2997 RMK A01 T01170052  RH  064%=      5-min Rain = 0
KMC4 140310Z 34003KT 12/05 A2997 RMK A01 T01180051  RH  063%=      5-min Rain = 0
KMC4 140311Z 34003KT 12/05 A2997 RMK A01 T01210050  RH  062%=      5-min Rain = 0
KMC4 140312Z 33002KT 13/05 A2997 RMK A01 T01250050  RH  060%=      5-min Rain = 0
KMC4 140313Z 33003KT 13/05 A2997 RMK A01 T01260051  RH  060%=      5-min Rain = 0
KMC4 140314Z 32003KT 13/05 A2997 RMK A01 T01260053  RH  061%=      5-min Rain = 0
KMC4 140315Z 30002KT 13/05 A2997 RMK A01 T01250054  RH  062%=      5-min Rain = 0
KMC4 140316Z 29002KT 12/06 A2997 RMK A01 T01230055  RH  063%=      5-min Rain = 0
KMC4 140317Z 30002KT 12/06 A2997 RMK A01 T01200057  RH  065%=      5-min Rain = 0
KMC4 140318Z 29002KT 12/06 A2997 RMK A01 T01180059  RH  067%=      5-min Rain = 0
KMC4 140319Z 29002KT 11/06 A2997 RMK A01 T01140060  RH  069%=      5-min Rain = 0
KMC4 140320Z 28002KT 11/06 A2997 RMK A01 T01110059  RH  070%=      5-min Rain = 0
KMC4 140321Z 27002KT 11/06 A2998 RMK A01 T01100060  RH  071%=      5-min Rain = 0
KMC4 140322Z 27002KT 11/06 A2998 RMK A01 T01090059  RH  072%=      5-min Rain = 0
KMC4 140323Z 27002KT 11/06 A2998 RMK A01 T01090059  RH  071%=      5-min Rain = 0
KMC4 140324Z 27002KT 11/06 A2997 RMK A01 T01080059  RH  072%=      5-min Rain = 0
KMC4 140325Z 26003KT 11/06 A2998 RMK A01 T01080058  RH  072%=      5-min Rain = 0
KMC4 140326Z 27003KT 11/06 A2998 RMK A01 T01080058  RH  072%=      5-min Rain = 0
KMC4 140327Z 28003KT 11/06 A2998 RMK A01 T01070057  RH  071%=      5-min Rain = 0
KMC4 140328Z 29003KT 11/06 A2998 RMK A01 T01080060  RH  072%=      5-min Rain = 0
KMC4 140329Z 29003KT 11/06 A2998 RMK A01 T01060059  RH  073%=      5-min Rain = 0
KMC4 140330Z 29003KT 11/06 A2998 RMK A01 T01050055  RH  071%=      5-min Rain = 0
KMC4 140331Z 29003KT 11/05 A2998 RMK A01 T01050054  RH  071%=      5-min Rain = 0
KMC4 140332Z 30004KT 11/05 A2998 RMK A01 T01050054  RH  071%=      5-min Rain = 0
KMC4 140333Z 30004KT 11/05 A2998 RMK A01 T01060052  RH  069%=      5-min Rain = 0
KMC4 140334Z 31004KT 11/05 A2998 RMK A01 T01080053  RH  069%=      5-min Rain = 0
KMC4 140335Z 31004KT 11/05 A2998 RMK A01 T01080054  RH  069%=      5-min Rain = 0
KMC4 140336Z 32004KT 11/05 A2998 RMK A01 T01080054  RH  069%=      5-min Rain = 0
KMC4 140337Z 32004KT 11/05 A2998 RMK A01 T01090053  RH  068%=      5-min Rain = 0
KMC4 140338Z 32005KT 11/05 A2998 RMK A01 T01100052  RH  067%=      5-min Rain = 0
KMC4 140339Z 31006KT 11/05 A2998 RMK A01 T01120051  RH  066%=      5-min Rain = 0
KMC4 140340Z 31006KT 11/05 A2998 RMK A01 T01140050  RH  065%=      5-min Rain = 0
KMC4 140341Z 30005KT 12/05 A2998 RMK A01 T01150050  RH  064%=      5-min Rain = 0
KMC4 140342Z 29006KT 12/05 A2998 RMK A01 T01180049  RH  063%=      5-min Rain = 0
KMC4 140343Z 30007KT 12/05 A2998 RMK A01 T01220050  RH  061%=      5-min Rain = 0
KMC4 140344Z 30006KT 12/05 A2998 RMK A01 T01230053  RH  062%=      5-min Rain = 0
KMC4 140345Z 30006KT 12/06 A2998 RMK A01 T01210056  RH  065%=      5-min Rain = 0
KMC4 140346Z 30007KT 12/05 A2998 RMK A01 T01190052  RH  064%=      5-min Rain = 0
KMC4 140347Z 30007KT 12/05 A2998 RMK A01 T01180049  RH  063%=      5-min Rain = 0
KMC4 140348Z 31007KT 12/05 A2998 RMK A01 T01200048  RH  061%=      5-min Rain = 0
KMC4 140349Z 32006KT 12/05 A2998 RMK A01 T01230050  RH  061%=      5-min Rain = 0
KMC4 140350Z 32007KT 12/05 A2998 RMK A01 T01240051  RH  061%=      5-min Rain = 0
KMC4 140351Z 33006KT 13/05 A2998 RMK A01 T01250050  RH  060%=      5-min Rain = 0
KMC4 140352Z 31005KT 13/05 A2998 RMK A01 T01270050  RH  060%=      5-min Rain = 0
KMC4 140353Z 31005KT 13/05 A2998 RMK A01 T01280050  RH  059%=      5-min Rain = 0
KMC4 140354Z 32005KT 13/05 A2998 RMK A01 T01280049  RH  059%=      5-min Rain = 0
KMC4 140355Z 33006KT 13/05 A2998 RMK A01 T01290049  RH  058%=      5-min Rain = 0
KMC4 140356Z 33006KT 13/05 A2998 RMK A01 T01310049  RH  058%=      5-min Rain = 0
KMC4 140357Z 32005KT 13/05 A2998 RMK A01 T01310049  RH  057%=      5-min Rain = 0
KMC4 140358Z 31005KT 13/05 A2998 RMK A01 T01310049  RH  058%=      5-min Rain = 0
KMC4 140359Z 31005KT 13/05 A2998 RMK A01 T01310049  RH  058%=      5-min Rain = 0
KMC4 140400Z 30005KT 13/05 A2998 RMK A01 T01300050  RH  058%=      5-min Rain = 0
KMC4 140401Z 30005KT 13/05 A2998 RMK A01 T01300049  RH  058%=      5-min Rain = 0
KMC4 140402Z 30006KT 13/05 A2998 RMK A01 T01310049  RH  057%=      5-min Rain = 0
KMC4 140403Z 30006KT 13/05 A2998 RMK A01 T01320048  RH  057%=      5-min Rain = 0
KMC4 140404Z 31006KT 13/05 A2998 RMK A01 T01320049  RH  057%=      5-min Rain = 0
KMC4 140405Z 31005KT 13/05 A2998 RMK A01 T01310051  RH  058%=      5-min Rain = 0
KMC4 140406Z 31005KT 13/05 A2998 RMK A01 T01300051  RH  059%=      5-min Rain = 0
KMC4 140407Z 31005KT 13/05 A2998 RMK A01 T01290051  RH  059%=      5-min Rain = 0
KMC4 140408Z 31005KT 13/05 A2998 RMK A01 T01290051  RH  059%=      5-min Rain = 0
KMC4 140409Z 32005KT 13/05 A2998 RMK A01 T01280051  RH  060%=      5-min Rain = 0
KMC4 140410Z 32006KT 13/05 A2998 RMK A01 T01280051  RH  060%=      5-min Rain = 0
KMC4 140411Z 31005KT 13/05 A2998 RMK A01 T01280050  RH  059%=      5-min Rain = 0
KMC4 140412Z 31005KT 13/05 A2998 RMK A01 T01280049  RH  058%=      5-min Rain = 0
KMC4 140413Z 31005KT 13/05 A2998 RMK A01 T01290050  RH  058%=      5-min Rain = 0
KMC4 140414Z 30005KT 13/05 A2998 RMK A01 T01300049  RH  058%=      5-min Rain = 0
KMC4 140415Z 30005KT 13/05 A2998 RMK A01 T01310048  RH  057%=      5-min Rain = 0
KMC4 140416Z 30005KT 13/05 A2998 RMK A01 T01320049  RH  057%=      5-min Rain = 0
KMC4 140417Z 30005KT 13/05 A2998 RMK A01 T01320049  RH  057%=      5-min Rain = 0
KMC4 140418Z 29005KT 13/05 A2998 RMK A01 T01310049  RH  057%=      5-min Rain = 0
KMC4 140419Z 30004KT 13/05 A2998 RMK A01 T01270050  RH  060%=      5-min Rain = 0
KMC4 140420Z 30005KT 12/05 A2998 RMK A01 T01240049  RH  060%=      5-min Rain = 0
KMC4 140421Z 30005KT 12/05 A2998 RMK A01 T01230048  RH  060%=      5-min Rain = 0
KMC4 140422Z 30005KT 12/05 A2998 RMK A01 T01220048  RH  061%=      5-min Rain = 0
KMC4 140423Z 29004KT 12/05 A2998 RMK A01 T01210052  RH  063%=      5-min Rain = 0
KMC4 140424Z 28004KT 12/05 A2998 RMK A01 T01170054  RH  065%=      5-min Rain = 0
KMC4 140425Z 27004KT 11/05 A2998 RMK A01 T01120052  RH  066%=      5-min Rain = 0
KMC4 140426Z 27004KT 11/05 A2998 RMK A01 T01100052  RH  068%=      5-min Rain = 0
KMC4 140427Z 28004KT 11/05 A2998 RMK A01 T01060054  RH  070%=      5-min Rain = 0
KMC4 140428Z 29004KT 10/05 A2998 RMK A01 T01030054  RH  072%=      5-min Rain = 0
KMC4 140429Z 31003KT 10/05 A2998 RMK A01 T01020054  RH  072%=      5-min Rain = 0
KMC4 140430Z 31003KT 10/05 A2998 RMK A01 T01010054  RH  073%=      5-min Rain = 0
KMC4 140431Z 31003KT 10/06 A2998 RMK A01 T01010055  RH  073%=      5-min Rain = 0
KMC4 140432Z 30003KT 10/06 A2998 RMK A01 T01010055  RH  073%=      5-min Rain = 0
KMC4 140433Z 29003KT 10/06 A2998 RMK A01 T01010056  RH  074%=      5-min Rain = 0
KMC4 140434Z 29004KT 10/05 A2998 RMK A01 T01010054  RH  073%=      5-min Rain = 0
KMC4 140435Z 29003KT 10/05 A2998 RMK A01 T01020054  RH  072%=      5-min Rain = 0
KMC4 140436Z 29003KT 10/05 A2998 RMK A01 T01040053  RH  071%=      5-min Rain = 0
KMC4 140437Z 29003KT 11/05 A2998 RMK A01 T01050052  RH  070%=      5-min Rain = 0
KMC4 140438Z 29003KT 11/05 A2998 RMK A01 T01050051  RH  069%=      5-min Rain = 0
KMC4 140439Z 29003KT 11/05 A2998 RMK A01 T01060050  RH  068%=      5-min Rain = 0
KMC4 140440Z 29003KT 11/05 A2998 RMK A01 T01070051  RH  068%=      5-min Rain = 0
KMC4 140441Z 29004KT 11/05 A2998 RMK A01 T01070050  RH  068%=      5-min Rain = 0
KMC4 140442Z 29004KT 11/05 A2998 RMK A01 T01070050  RH  068%=      5-min Rain = 0
KMC4 140443Z 30004KT 11/05 A2998 RMK A01 T01070050  RH  068%=      5-min Rain = 0
KMC4 140444Z 30005KT 11/05 A2998 RMK A01 T01080051  RH  068%=      5-min Rain = 0
KMC4 140445Z 31005KT 11/05 A2998 RMK A01 T01080051  RH  068%=      5-min Rain = 0
KMC4 140446Z 31005KT 11/05 A2998 RMK A01 T01080050  RH  068%=      5-min Rain = 0
KMC4 140447Z 31005KT 11/05 A2998 RMK A01 T01090050  RH  067%=      5-min Rain = 0
KMC4 140448Z 31005KT 11/05 A2998 RMK A01 T01110051  RH  066%=      5-min Rain = 0
KMC4 140449Z 31005KT 11/05 A2998 RMK A01 T01120051  RH  066%=      5-min Rain = 0
KMC4 140450Z 31005KT 11/05 A2998 RMK A01 T01120051  RH  066%=      5-min Rain = 0
KMC4 140451Z 31006KT 11/05 A2998 RMK A01 T01120051  RH  066%=      5-min Rain = 0
KMC4 140452Z 31005KT 11/05 A2998 RMK A01 T01120050  RH  065%=      5-min Rain = 0
KMC4 140453Z 31006KT 11/05 A2998 RMK A01 T01130050  RH  065%=      5-min Rain = 0
KMC4 140454Z 30007KT 11/05 A2998 RMK A01 T01140049  RH  064%=      5-min Rain = 0
KMC4 140455Z 31007KT 12/05 A2998 RMK A01 T01160049  RH  063%=      5-min Rain = 0
KMC4 140456Z 31007KT 12/05 A2998 RMK A01 T01170049  RH  063%=      5-min Rain = 0
KMC4 140457Z 32007KT 12/05 A2998 RMK A01 T01180049  RH  063%=      5-min Rain = 0
KMC4 140458Z 32007KT 12/05 A2998 RMK A01 T01180049  RH  062%=      5-min Rain = 0
KMC4 140459Z 31007KT 12/05 A2998 RMK A01 T01190048  RH  062%=      5-min Rain = 0
KMC4 140500Z 31006KT 12/05 A2998 RMK A01 T01220047  RH  060%=      5-min Rain = 0
KMC4 140501Z 30006KT 12/05 A2998 RMK A01 T01230047  RH  060%=      5-min Rain = 0
KMC4 140502Z 30006KT 12/05 A2998 RMK A01 T01240047  RH  059%=      5-min Rain = 0
KMC4 140503Z 30007KT 13/05 A2998 RMK A01 T01250047  RH  059%=      5-min Rain = 0
KMC4 140504Z 30007KT 12/05 A2998 RMK A01 T01240048  RH  060%=      5-min Rain = 0
KMC4 140505Z 30005KT 12/05 A2998 RMK A01 T01220049  RH  061%=      5-min Rain = 0
KMC4 140506Z 30006KT 12/05 A2998 RMK A01 T01200048  RH  061%=      5-min Rain = 0
KMC4 140507Z 30005KT 12/05 A2998 RMK A01 T01200048  RH  061%=      5-min Rain = 0
KMC4 140508Z 30006KT 12/05 A2998 RMK A01 T01200048  RH  061%=      5-min Rain = 0
KMC4 140509Z 30006KT 12/05 A2998 RMK A01 T01190048  RH  062%=      5-min Rain = 0
KMC4 140510Z 30005KT 12/05 A2998 RMK A01 T01180049  RH  062%=      5-min Rain = 0
KMC4 140511Z 30004KT 12/05 A2998 RMK A01 T01170049  RH  063%=      5-min Rain = 0
KMC4 140512Z 30004KT 12/05 A2998 RMK A01 T01160050  RH  064%=      5-min Rain = 0
KMC4 140513Z 28004KT 11/05 A2998 RMK A01 T01130050  RH  065%=      5-min Rain = 0
KMC4 140514Z 28004KT 11/05 A2998 RMK A01 T01110050  RH  066%=      5-min Rain = 0
KMC4 140515Z 29004KT 11/05 A2998 RMK A01 T01080051  RH  068%=      5-min Rain = 0
KMC4 140516Z 30004KT 11/05 A2998 RMK A01 T01070051  RH  068%=      5-min Rain = 0
KMC4 140517Z 30004KT 11/05 A2998 RMK A01 T01060050  RH  068%=      5-min Rain = 0
KMC4 140518Z 31004KT 11/05 A2998 RMK A01 T01060049  RH  068%=      5-min Rain = 0
KMC4 140519Z 31004KT 11/05 A2998 RMK A01 T01060049  RH  068%=      5-min Rain = 0
KMC4 140520Z 30004KT 11/05 A2998 RMK A01 T01060049  RH  068%=      5-min Rain = 0
KMC4 140521Z 29005KT 11/05 A2998 RMK A01 T01060050  RH  068%=      5-min Rain = 0
KMC4 140522Z 29005KT 11/05 A2998 RMK A01 T01070049  RH  068%=      5-min Rain = 0
KMC4 140523Z 29005KT 11/05 A2998 RMK A01 T01070049  RH  067%=      5-min Rain = 0
KMC4 140524Z 29005KT 11/05 A2998 RMK A01 T01070050  RH  068%=      5-min Rain = 0
KMC4 140525Z 30005KT 11/05 A2998 RMK A01 T01070050  RH  068%=      5-min Rain = 0
KMC4 140526Z 31005KT 11/05 A2998 RMK A01 T01070050  RH  068%=      5-min Rain = 0
KMC4 140527Z 31005KT 11/05 A2998 RMK A01 T01070050  RH  068%=      5-min Rain = 0
KMC4 140528Z 31005KT 11/05 A2998 RMK A01 T01060050  RH  068%=      5-min Rain = 0
KMC4 140529Z 29006KT 11/05 A2998 RMK A01 T01060051  RH  069%=      5-min Rain = 0
KMC4 140530Z 29006KT 11/05 A2998 RMK A01 T01050049  RH  068%=      5-min Rain = 0
KMC4 140531Z 29006KT 11/05 A2998 RMK A01 T01060049  RH  068%=      5-min Rain = 0
KMC4 140532Z 30006KT 11/05 A2998 RMK A01 T01060050  RH  068%=      5-min Rain = 0
KMC4 140533Z 31005KT 11/05 A2998 RMK A01 T01060051  RH  069%=      5-min Rain = 0
KMC4 140534Z 31005KT 11/05 A2998 RMK A01 T01050051  RH  069%=      5-min Rain = 0
KMC4 140535Z 30005KT 10/05 A2998 RMK A01 T01040050  RH  070%=      5-min Rain = 0
KMC4 140536Z 30006KT 10/05 A2998 RMK A01 T01030050  RH  069%=      5-min Rain = 0
KMC4 140537Z 30006KT 10/05 A2998 RMK A01 T01040050  RH  069%=      5-min Rain = 0
KMC4 140538Z 31006KT 10/05 A2998 RMK A01 T01030050  RH  069%=      5-min Rain = 0
KMC4 140539Z 30005KT 10/05 A2998 RMK A01 T01040050  RH  070%=      5-min Rain = 0
KMC4 140540Z 30005KT 10/05 A2998 RMK A01 T01040050  RH  069%=      5-min Rain = 0
KMC4 140541Z 30005KT 10/05 A2998 RMK A01 T01040050  RH  069%=      5-min Rain = 0
KMC4 140542Z 30005KT 10/05 A2998 RMK A01 T01040049  RH  069%=      5-min Rain = 0
KMC4 140543Z 30005KT 10/05 A2998 RMK A01 T01040050  RH  069%=      5-min Rain = 0
KMC4 140544Z 30005KT 10/05 A2998 RMK A01 T01040050  RH  069%=      5-min Rain = 0
KMC4 140545Z 30005KT 10/05 A2998 RMK A01 T01040050  RH  069%=      5-min Rain = 0
KMC4 140546Z 29005KT 10/05 A2998 RMK A01 T01040049  RH  069%=      5-min Rain = 0
KMC4 140547Z 29005KT 10/05 A2998 RMK A01 T01040049  RH  069%=      5-min Rain = 0
KMC4 140548Z 28005KT 10/05 A2998 RMK A01 T01040048  RH  068%=      5-min Rain = 0
KMC4 140549Z 27004KT 10/05 A2998 RMK A01 T01040048  RH  068%=      5-min Rain = 0
KMC4 140550Z 27004KT 10/05 A2998 RMK A01 T01040049  RH  068%=      5-min Rain = 0
KMC4 140551Z 27004KT 10/05 A2998 RMK A01 T01030049  RH  069%=      5-min Rain = 0
KMC4 140552Z 27004KT 10/05 A2998 RMK A01 T01020049  RH  070%=      5-min Rain = 0
KMC4 140553Z 27005KT 10/05 A2998 RMK A01 T01000048  RH  070%=      5-min Rain = 0
KMC4 140554Z 27004KT 10/05 A2998 RMK A01 T01000048  RH  070%=      5-min Rain = 0
KMC4 140555Z 27004KT 10/05 A2998 RMK A01 T00990048  RH  071%=      5-min Rain = 0
KMC4 140556Z 27004KT 10/05 A2998 RMK A01 T00990048  RH  071%=      5-min Rain = 0
KMC4 140557Z 27004KT 10/05 A2997 RMK A01 T00980049  RH  071%=      5-min Rain = 0
KMC4 140558Z 27005KT 10/05 A2997 RMK A01 T00980049  RH  072%=      5-min Rain = 0
KMC4 140559Z 28005KT 10/05 A2997 RMK A01 T00970048  RH  072%=      5-min Rain = 0

Page generated in 0.0639 seconds.